KLM714 SMJP-EHAM
Flight info
| Callsign | KLM714 |
|---|---|
| Flight time | 8h 48m |
| Altitude | 35000 |
| Route | TODOL DCT 0730N05400W DCT 0927N05300W 13N050W DCT QUETN/M083F350 DCT 19N045W 24N040W 28N035W/M083F370 31N030W 35N025W 38N020W DCT BANAL DCT KOPAS/N0479F380 DCT PITAX/M083F390 DCT UMLER UN734 UMOXA/N0480F390 DCT AMPOP DCT SIDDI DCT DAWLY DCT GIBSO L620 SAM M140 DVR/N0413F230 L18 VABIK Q70 KOK DCT DENUT |
| Aircraft | B772/H-SDE2E3FGHIJ5LORVWXY/LB1D1 |
Departure
| Time | 2026-05-04 21:41 |
|---|---|
| Airport | Johan Adolf Pengel International Airport (SMJP) |
Arrival
| Time | 2026-05-05 06:30 |
|---|---|
| Airport | Amsterdam Airport Schiphol (EHAM) |
| Time | Latitude | Longitude | Altitude | Speed | Heading |
|---|---|---|---|---|---|
| 2026-05-04 21:08 | 5.45510 | -55.19964 | 58 ft | 0 kts | 1° |
| 2026-05-04 21:13 | 5.45515 | -55.19794 | 60 ft | 0 kts | 88° |
| 2026-05-04 21:34 | 5.45515 | -55.19789 | 67 ft | 3 kts | 88° |
| 2026-05-04 21:35 | 5.45506 | -55.19749 | 59 ft | 8 kts | 131° |
| 2026-05-04 21:35 | 5.45451 | -55.19765 | 65 ft | 12 kts | 245° |
| 2026-05-04 21:35 | 5.45446 | -55.19871 | 66 ft | 17 kts | 268° |
| 2026-05-04 21:35 | 5.45445 | -55.19946 | 65 ft | 7 kts | 270° |
| 2026-05-04 21:36 | 5.45445 | -55.19993 | 64 ft | 7 kts | 270° |
| 2026-05-04 21:36 | 5.45445 | -55.20040 | 64 ft | 7 kts | 270° |
| 2026-05-04 21:36 | 5.45445 | -55.20087 | 65 ft | 7 kts | 270° |
| 2026-05-04 21:36 | 5.45445 | -55.20134 | 65 ft | 7 kts | 270° |
| 2026-05-04 21:37 | 5.45445 | -55.20181 | 65 ft | 7 kts | 270° |
| 2026-05-04 21:37 | 5.45445 | -55.20228 | 65 ft | 7 kts | 269° |
| 2026-05-04 21:37 | 5.45444 | -55.20276 | 64 ft | 7 kts | 268° |
| 2026-05-04 21:37 | 5.45433 | -55.20323 | 59 ft | 7 kts | 239° |
| 2026-05-04 21:38 | 5.45398 | -55.20346 | 54 ft | 2 kts | 196° |
| 2026-05-04 21:38 | 5.45391 | -55.20347 | 54 ft | 0 kts | 189° |
| 2026-05-04 21:38 | 5.45388 | -55.20347 | 55 ft | 2 kts | 189° |
| 2026-05-04 21:39 | 5.45356 | -55.20349 | 57 ft | 8 kts | 180° |
| 2026-05-04 21:39 | 5.45300 | -55.20345 | 59 ft | 8 kts | 176° |
| 2026-05-04 21:39 | 5.45273 | -55.20308 | 55 ft | 0 kts | 84° |
| 2026-05-04 21:40 | 5.45276 | -55.20255 | 61 ft | 27 kts | 88° |
| 2026-05-04 21:40 | 5.45280 | -55.19808 | 63 ft | 100 kts | 90° |
| 2026-05-04 21:40 | 5.45287 | -55.18883 | 58 ft | 163 kts | 89° |
| 2026-05-04 21:41 | 5.45291 | -55.17595 | 253 ft | 193 kts | 89° |
| 2026-05-04 21:41 | 5.45396 | -55.16271 | 725 ft | 192 kts | 62° |
| 2026-05-04 21:41 | 5.46311 | -55.15377 | 1213 ft | 186 kts | 19° |
| 2026-05-04 21:41 | 5.47558 | -55.15022 | 1753 ft | 190 kts | 25° |
| 2026-05-04 21:42 | 5.48802 | -55.14415 | 1924 ft | 207 kts | 27° |
| 2026-05-04 21:42 | 5.50166 | -55.13745 | 2097 ft | 229 kts | 28° |
| 2026-05-04 21:42 | 5.51631 | -55.13003 | 2470 ft | 242 kts | 28° |
| 2026-05-04 21:42 | 5.53151 | -55.12203 | 2935 ft | 251 kts | 30° |
| 2026-05-04 21:43 | 5.54707 | -55.11357 | 3553 ft | 256 kts | 30° |
| 2026-05-04 21:43 | 5.55743 | -55.10780 | 3994 ft | 259 kts | 31° |
| 2026-05-04 21:43 | 5.57869 | -55.09569 | 4808 ft | 266 kts | 31° |
| 2026-05-04 21:43 | 5.58935 | -55.08951 | 5215 ft | 268 kts | 32° |
| 2026-05-04 21:44 | 5.60553 | -55.08005 | 5848 ft | 272 kts | 32° |
| 2026-05-04 21:44 | 5.62199 | -55.07034 | 6432 ft | 276 kts | 33° |
| 2026-05-04 21:44 | 5.63853 | -55.06051 | 7032 ft | 278 kts | 34° |
| 2026-05-04 21:44 | 5.65521 | -55.05056 | 7603 ft | 281 kts | 33° |
| 2026-05-04 21:45 | 5.67214 | -55.04045 | 8126 ft | 285 kts | 33° |
| 2026-05-04 21:45 | 5.68926 | -55.03019 | 8714 ft | 288 kts | 34° |
| 2026-05-04 21:45 | 5.70661 | -55.01977 | 9249 ft | 293 kts | 33° |
| 2026-05-04 21:45 | 5.72417 | -55.00921 | 9835 ft | 296 kts | 33° |
| 2026-05-04 21:46 | 5.74198 | -54.99851 | 10279 ft | 304 kts | 33° |
| 2026-05-04 21:46 | 5.76071 | -54.98722 | 10433 ft | 324 kts | 34° |
| 2026-05-04 21:46 | 5.78067 | -54.97518 | 10596 ft | 344 kts | 33° |
| 2026-05-04 21:46 | 5.80172 | -54.96250 | 10747 ft | 364 kts | 33° |
| 2026-05-04 21:47 | 5.82386 | -54.94918 | 11082 ft | 376 kts | 33° |
| 2026-05-04 21:47 | 5.84658 | -54.93553 | 11636 ft | 382 kts | 34° |
| 2026-05-04 21:47 | 5.86906 | -54.92167 | 12282 ft | 386 kts | 34° |
| 2026-05-04 21:47 | 5.89249 | -54.90763 | 13104 ft | 387 kts | 34° |
| 2026-05-04 21:48 | 5.91540 | -54.89400 | 13837 ft | 389 kts | 34° |
| 2026-05-04 21:48 | 5.93873 | -54.88008 | 14459 ft | 392 kts | 34° |
| 2026-05-04 21:48 | 5.96227 | -54.86596 | 15044 ft | 396 kts | 34° |
| 2026-05-04 21:48 | 5.98594 | -54.85172 | 15641 ft | 399 kts | 34° |
| 2026-05-04 21:49 | 6.00986 | -54.83731 | 16231 ft | 402 kts | 34° |
| 2026-05-04 21:49 | 6.03405 | -54.82299 | 16826 ft | 406 kts | 32° |
| 2026-05-04 21:49 | 6.05874 | -54.80901 | 17394 ft | 409 kts | 32° |
| 2026-05-04 21:49 | 6.08375 | -54.79512 | 17961 ft | 412 kts | 31° |
| 2026-05-04 21:50 | 6.10933 | -54.78097 | 18481 ft | 416 kts | 31° |
| 2026-05-04 21:50 | 6.13481 | -54.76685 | 18917 ft | 420 kts | 31° |
| 2026-05-04 21:50 | 6.16019 | -54.75274 | 19333 ft | 425 kts | 31° |
| 2026-05-04 21:50 | 6.18616 | -54.73827 | 19768 ft | 428 kts | 31° |
| 2026-05-04 21:51 | 6.21232 | -54.72364 | 20206 ft | 432 kts | 31° |
| 2026-05-04 21:51 | 6.23867 | -54.70890 | 20678 ft | 435 kts | 30° |
| 2026-05-04 21:51 | 6.26524 | -54.69401 | 21121 ft | 438 kts | 30° |
| 2026-05-04 21:51 | 6.29188 | -54.67908 | 21573 ft | 441 kts | 29° |
| 2026-05-04 21:52 | 6.31883 | -54.66399 | 21956 ft | 446 kts | 29° |
| 2026-05-04 21:52 | 6.34612 | -54.64869 | 22256 ft | 452 kts | 29° |
| 2026-05-04 21:52 | 6.37367 | -54.63325 | 22729 ft | 454 kts | 28° |
| 2026-05-04 21:52 | 6.40142 | -54.61769 | 23066 ft | 459 kts | 28° |
| 2026-05-04 21:53 | 6.42937 | -54.60202 | 23431 ft | 463 kts | 27° |
| 2026-05-04 21:53 | 6.45761 | -54.58618 | 23763 ft | 466 kts | 28° |
| 2026-05-04 21:53 | 6.48599 | -54.57024 | 24090 ft | 468 kts | 28° |
| 2026-05-04 21:53 | 6.51413 | -54.55447 | 24415 ft | 471 kts | 26° |
| 2026-05-04 21:54 | 6.54290 | -54.53835 | 24676 ft | 476 kts | 28° |
| 2026-05-04 21:54 | 6.57190 | -54.52207 | 24977 ft | 479 kts | 27° |
| 2026-05-04 21:54 | 6.60104 | -54.50573 | 25328 ft | 480 kts | 28° |
| 2026-05-04 21:54 | 6.63025 | -54.48934 | 25670 ft | 482 kts | 27° |
| 2026-05-04 21:55 | 6.65965 | -54.47283 | 26020 ft | 484 kts | 27° |
| 2026-05-04 21:55 | 6.68909 | -54.45629 | 26323 ft | 487 kts | 28° |
| 2026-05-04 21:55 | 6.71874 | -54.43963 | 26629 ft | 489 kts | 27° |
| 2026-05-04 21:55 | 6.74858 | -54.42287 | 26919 ft | 492 kts | 27° |
| 2026-05-04 21:56 | 6.77856 | -54.40604 | 27218 ft | 494 kts | 27° |
| 2026-05-04 21:56 | 6.80867 | -54.38912 | 27509 ft | 497 kts | 27° |
| 2026-05-04 21:56 | 6.83889 | -54.37214 | 27776 ft | 500 kts | 27° |
| 2026-05-04 21:56 | 6.86933 | -54.35504 | 28056 ft | 502 kts | 27° |
| 2026-05-04 21:57 | 6.89981 | -54.33791 | 28340 ft | 504 kts | 27° |
| 2026-05-04 21:57 | 6.93052 | -54.32065 | 28600 ft | 506 kts | 27° |
| 2026-05-04 21:57 | 6.96130 | -54.30334 | 28853 ft | 508 kts | 27° |
| 2026-05-04 21:57 | 6.99221 | -54.28596 | 29092 ft | 510 kts | 27° |
| 2026-05-04 21:58 | 7.02329 | -54.26849 | 29328 ft | 512 kts | 27° |
| 2026-05-04 21:58 | 7.05442 | -54.25097 | 29545 ft | 514 kts | 27° |
| 2026-05-04 21:58 | 7.08570 | -54.23338 | 29783 ft | 516 kts | 27° |
| 2026-05-04 21:58 | 7.11711 | -54.21570 | 29984 ft | 517 kts | 26° |
| 2026-05-04 21:59 | 7.14854 | -54.19801 | 30220 ft | 518 kts | 26° |
| 2026-05-04 21:59 | 7.17995 | -54.18033 | 30482 ft | 517 kts | 26° |
| 2026-05-04 21:59 | 7.21137 | -54.16264 | 30769 ft | 517 kts | 26° |
| 2026-05-04 21:59 | 7.24273 | -54.14498 | 31024 ft | 516 kts | 26° |
| 2026-05-04 22:00 | 7.27412 | -54.12730 | 31276 ft | 516 kts | 26° |
| 2026-05-04 22:00 | 7.30548 | -54.10964 | 31531 ft | 516 kts | 26° |
| 2026-05-04 22:00 | 7.33685 | -54.09197 | 31788 ft | 516 kts | 26° |
| 2026-05-04 22:00 | 7.36821 | -54.07430 | 32052 ft | 516 kts | 26° |
| 2026-05-04 22:01 | 7.39950 | -54.05667 | 32297 ft | 516 kts | 26° |
| 2026-05-04 22:01 | 7.43083 | -54.03901 | 32543 ft | 516 kts | 26° |
| 2026-05-04 22:01 | 7.46217 | -54.02134 | 32795 ft | 516 kts | 26° |
| 2026-05-04 22:02 | 7.52476 | -53.98640 | 32931 ft | 518 kts | 25° |
| 2026-05-04 22:02 | 7.58871 | -53.95366 | 32954 ft | 514 kts | 23° |
| 2026-05-04 22:03 | 7.65275 | -53.92175 | 32968 ft | 512 kts | 23° |
| 2026-05-04 22:03 | 7.71649 | -53.88961 | 32967 ft | 513 kts | 23° |
| 2026-05-04 22:04 | 7.78023 | -53.85711 | 32968 ft | 514 kts | 23° |
| 2026-05-04 22:04 | 7.84405 | -53.82446 | 32970 ft | 515 kts | 23° |
| 2026-05-04 22:05 | 7.90808 | -53.79171 | 32968 ft | 516 kts | 23° |
| 2026-05-04 22:05 | 7.97216 | -53.75895 | 32973 ft | 517 kts | 23° |
| 2026-05-04 22:06 | 8.03638 | -53.72610 | 32963 ft | 517 kts | 23° |
| 2026-05-04 22:06 | 8.10052 | -53.69329 | 32967 ft | 517 kts | 23° |
| 2026-05-04 22:07 | 8.16470 | -53.66045 | 32971 ft | 517 kts | 23° |
| 2026-05-04 22:07 | 8.22877 | -53.62764 | 32971 ft | 516 kts | 23° |
| 2026-05-04 22:08 | 8.29282 | -53.59484 | 32974 ft | 516 kts | 23° |
| 2026-05-04 22:08 | 8.35681 | -53.56206 | 32976 ft | 516 kts | 23° |
| 2026-05-04 22:09 | 8.42081 | -53.52926 | 32978 ft | 516 kts | 23° |
| 2026-05-04 22:09 | 8.48485 | -53.49643 | 32977 ft | 516 kts | 23° |
| 2026-05-04 22:10 | 8.54886 | -53.46360 | 32990 ft | 516 kts | 23° |
| 2026-05-04 22:10 | 8.61245 | -53.43097 | 32980 ft | 516 kts | 23° |
| 2026-05-04 22:11 | 8.67684 | -53.39792 | 32978 ft | 515 kts | 23° |
| 2026-05-04 22:11 | 8.74074 | -53.36511 | 32977 ft | 515 kts | 23° |
| 2026-05-04 22:12 | 8.80462 | -53.33230 | 32977 ft | 515 kts | 23° |
| 2026-05-04 22:12 | 8.86801 | -53.29972 | 32978 ft | 515 kts | 23° |
| 2026-05-04 22:13 | 8.93184 | -53.26691 | 32982 ft | 515 kts | 23° |
| 2026-05-04 22:13 | 8.99569 | -53.23407 | 32978 ft | 515 kts | 22° |
| 2026-05-04 22:14 | 9.05959 | -53.20119 | 32982 ft | 515 kts | 22° |
| 2026-05-04 22:14 | 9.12354 | -53.16828 | 32988 ft | 516 kts | 22° |
| 2026-05-04 22:15 | 9.18750 | -53.13534 | 32981 ft | 516 kts | 22° |
| 2026-05-04 22:15 | 9.25141 | -53.10241 | 32984 ft | 515 kts | 22° |
| 2026-05-04 22:16 | 9.31534 | -53.06947 | 32984 ft | 515 kts | 22° |
| 2026-05-04 22:16 | 9.37919 | -53.03654 | 32993 ft | 515 kts | 22° |
| 2026-05-04 22:17 | 9.44264 | -53.00264 | 32980 ft | 518 kts | 27° |
| 2026-05-04 22:17 | 9.50098 | -52.95925 | 32988 ft | 522 kts | 36° |
| 2026-05-04 22:18 | 9.55676 | -52.91195 | 32987 ft | 523 kts | 36° |
| 2026-05-04 22:18 | 9.61264 | -52.86475 | 32991 ft | 523 kts | 36° |
| 2026-05-04 22:19 | 9.66878 | -52.81780 | 32997 ft | 523 kts | 36° |
| 2026-05-04 22:19 | 9.72502 | -52.77096 | 32989 ft | 524 kts | 36° |
| 2026-05-04 22:20 | 9.78133 | -52.72405 | 32994 ft | 524 kts | 36° |
| 2026-05-04 22:20 | 9.83755 | -52.67716 | 32994 ft | 524 kts | 36° |
| 2026-05-04 22:21 | 9.89382 | -52.63020 | 32998 ft | 523 kts | 36° |
| 2026-05-04 22:21 | 9.95004 | -52.58324 | 33003 ft | 523 kts | 36° |
| 2026-05-04 22:22 | 10.00584 | -52.53662 | 32998 ft | 523 kts | 36° |
| 2026-05-04 22:22 | 10.06194 | -52.48973 | 32998 ft | 522 kts | 36° |
| 2026-05-04 22:23 | 10.11805 | -52.44281 | 33001 ft | 522 kts | 36° |
| 2026-05-04 22:23 | 10.17411 | -52.39591 | 33000 ft | 522 kts | 36° |
| 2026-05-04 22:24 | 10.23015 | -52.34901 | 33006 ft | 522 kts | 36° |
| 2026-05-04 22:24 | 10.28610 | -52.30214 | 32999 ft | 521 kts | 36° |
| 2026-05-04 22:25 | 10.34196 | -52.25534 | 33001 ft | 520 kts | 36° |
| 2026-05-04 22:25 | 10.39779 | -52.20855 | 33008 ft | 520 kts | 36° |
| 2026-05-04 22:26 | 10.45372 | -52.16165 | 33024 ft | 520 kts | 36° |
| 2026-05-04 22:26 | 10.50951 | -52.11484 | 33009 ft | 520 kts | 36° |
| 2026-05-04 22:27 | 10.56517 | -52.06811 | 33005 ft | 518 kts | 36° |
| 2026-05-04 22:27 | 10.62070 | -52.02147 | 33004 ft | 518 kts | 36° |
| 2026-05-04 22:28 | 10.67623 | -51.97482 | 33014 ft | 518 kts | 36° |
| 2026-05-04 22:28 | 10.73177 | -51.92814 | 33025 ft | 518 kts | 36° |
| 2026-05-04 22:29 | 10.77797 | -51.88928 | 33014 ft | 518 kts | 36° |
| 2026-05-04 22:29 | 10.84245 | -51.83502 | 33012 ft | 517 kts | 36° |
| 2026-05-04 22:30 | 10.88886 | -51.79594 | 33014 ft | 517 kts | 36° |
| 2026-05-04 22:30 | 10.94425 | -51.74930 | 33017 ft | 517 kts | 36° |
| 2026-05-04 22:31 | 10.99958 | -51.70267 | 33028 ft | 516 kts | 37° |
| 2026-05-04 22:31 | 11.05482 | -51.65610 | 33019 ft | 515 kts | 37° |
| 2026-05-04 22:32 | 11.11001 | -51.60954 | 33017 ft | 515 kts | 37° |
| 2026-05-04 22:32 | 11.16514 | -51.56301 | 33016 ft | 515 kts | 37° |
| 2026-05-04 22:33 | 11.22027 | -51.51646 | 33032 ft | 515 kts | 37° |
| 2026-05-04 22:33 | 11.27507 | -51.47017 | 33027 ft | 515 kts | 37° |
| 2026-05-04 22:34 | 11.33024 | -51.42354 | 33023 ft | 515 kts | 37° |
| 2026-05-04 22:34 | 11.38545 | -51.37685 | 33024 ft | 515 kts | 37° |
| 2026-05-04 22:35 | 11.44055 | -51.33022 | 33008 ft | 515 kts | 37° |
| 2026-05-04 22:35 | 11.49567 | -51.28356 | 33017 ft | 515 kts | 37° |
| 2026-05-04 22:36 | 11.55072 | -51.23693 | 33027 ft | 515 kts | 37° |
| 2026-05-04 22:36 | 11.60582 | -51.19023 | 33027 ft | 515 kts | 37° |
| 2026-05-04 22:37 | 11.66092 | -51.14352 | 33029 ft | 515 kts | 37° |
| 2026-05-04 22:37 | 11.71609 | -51.09671 | 33033 ft | 516 kts | 37° |
| 2026-05-04 22:38 | 11.77114 | -51.04998 | 33028 ft | 514 kts | 37° |
| 2026-05-04 22:38 | 11.82607 | -51.00332 | 33031 ft | 513 kts | 37° |
| 2026-05-04 22:39 | 11.88084 | -50.95678 | 33030 ft | 512 kts | 37° |
| 2026-05-04 22:39 | 11.93545 | -50.91035 | 33035 ft | 511 kts | 37° |
| 2026-05-04 22:40 | 11.99007 | -50.86389 | 33044 ft | 510 kts | 37° |
| 2026-05-04 22:40 | 12.04457 | -50.81751 | 33039 ft | 510 kts | 37° |
| 2026-05-04 22:41 | 12.09906 | -50.77110 | 33041 ft | 510 kts | 37° |
| 2026-05-04 22:41 | 12.15352 | -50.72470 | 33038 ft | 510 kts | 37° |
| 2026-05-04 22:42 | 12.20759 | -50.67861 | 33043 ft | 510 kts | 37° |
| 2026-05-04 22:42 | 12.26242 | -50.63184 | 33051 ft | 509 kts | 37° |
| 2026-05-04 22:43 | 12.31645 | -50.58572 | 33042 ft | 509 kts | 37° |
| 2026-05-04 22:43 | 12.37082 | -50.53929 | 33043 ft | 509 kts | 37° |
| 2026-05-04 22:44 | 12.42521 | -50.49281 | 33045 ft | 509 kts | 37° |
| 2026-05-04 22:44 | 12.47953 | -50.44638 | 33052 ft | 508 kts | 38° |
| 2026-05-04 22:45 | 12.53373 | -50.40001 | 33047 ft | 507 kts | 38° |
| 2026-05-04 22:45 | 12.61469 | -50.33070 | 33049 ft | 505 kts | 38° |
| 2026-05-04 22:46 | 12.66851 | -50.28460 | 33050 ft | 504 kts | 38° |
| 2026-05-04 22:46 | 12.72226 | -50.23853 | 33059 ft | 503 kts | 38° |
| 2026-05-04 22:47 | 12.77600 | -50.19244 | 33054 ft | 503 kts | 38° |
| 2026-05-04 22:47 | 12.82966 | -50.14639 | 33049 ft | 503 kts | 38° |
| 2026-05-04 22:48 | 12.88289 | -50.10068 | 33055 ft | 502 kts | 38° |
| 2026-05-04 22:48 | 12.93642 | -50.05469 | 33052 ft | 502 kts | 38° |
| 2026-05-04 22:49 | 12.98992 | -50.00869 | 33062 ft | 502 kts | 38° |
| 2026-05-04 22:49 | 13.04430 | -49.96386 | 33067 ft | 501 kts | 35° |
| 2026-05-04 22:50 | 13.10017 | -49.92116 | 33044 ft | 500 kts | 34° |
| 2026-05-04 22:50 | 13.15604 | -49.87857 | 33059 ft | 501 kts | 34° |
| 2026-05-04 22:51 | 13.21170 | -49.83558 | 33071 ft | 500 kts | 35° |
| 2026-05-04 22:51 | 13.26712 | -49.79243 | 33053 ft | 500 kts | 35° |
| 2026-05-04 22:52 | 13.32247 | -49.74926 | 33051 ft | 499 kts | 35° |
| 2026-05-04 22:52 | 13.37777 | -49.70613 | 33063 ft | 499 kts | 35° |
| 2026-05-04 22:53 | 13.43310 | -49.66297 | 33077 ft | 499 kts | 35° |
| 2026-05-04 22:53 | 13.48842 | -49.61981 | 33057 ft | 499 kts | 35° |
| 2026-05-04 22:54 | 13.54366 | -49.57667 | 33065 ft | 498 kts | 35° |
| 2026-05-04 22:54 | 13.59883 | -49.53357 | 33066 ft | 498 kts | 35° |
| 2026-05-04 22:55 | 13.65401 | -49.49043 | 33065 ft | 498 kts | 35° |
| 2026-05-04 22:55 | 13.70916 | -49.44729 | 33066 ft | 498 kts | 35° |
| 2026-05-04 22:56 | 13.76430 | -49.40413 | 33066 ft | 498 kts | 35° |
| 2026-05-04 22:56 | 13.81943 | -49.36095 | 33069 ft | 498 kts | 35° |
| 2026-05-04 22:57 | 13.87420 | -49.31804 | 33075 ft | 498 kts | 36° |
| 2026-05-04 22:57 | 13.92931 | -49.27482 | 33072 ft | 498 kts | 35° |
| 2026-05-04 22:58 | 13.98441 | -49.23159 | 33076 ft | 498 kts | 35° |
| 2026-05-04 22:58 | 14.03952 | -49.18832 | 33073 ft | 498 kts | 36° |
| 2026-05-04 22:59 | 14.09464 | -49.14502 | 33077 ft | 498 kts | 35° |
| 2026-05-04 22:59 | 14.14975 | -49.10170 | 33077 ft | 498 kts | 35° |
| 2026-05-04 23:00 | 14.20480 | -49.05840 | 33078 ft | 498 kts | 36° |
| 2026-05-04 23:00 | 14.25982 | -49.01509 | 33078 ft | 498 kts | 35° |
| 2026-05-04 23:01 | 14.31484 | -48.97176 | 33076 ft | 497 kts | 35° |
| 2026-05-04 23:01 | 14.36986 | -48.92840 | 33077 ft | 497 kts | 36° |
| 2026-05-04 23:02 | 14.42447 | -48.88534 | 33085 ft | 497 kts | 36° |
| 2026-05-04 23:02 | 14.47937 | -48.84202 | 33080 ft | 496 kts | 35° |
| 2026-05-04 23:03 | 14.53421 | -48.79872 | 33084 ft | 496 kts | 36° |
| 2026-05-04 23:03 | 14.58896 | -48.75546 | 33083 ft | 495 kts | 35° |
| 2026-05-04 23:04 | 14.64370 | -48.71219 | 33092 ft | 495 kts | 36° |
| 2026-05-04 23:04 | 14.69829 | -48.66900 | 33086 ft | 494 kts | 36° |
| 2026-05-04 23:05 | 14.75282 | -48.62584 | 33085 ft | 494 kts | 36° |
| 2026-05-04 23:05 | 14.80734 | -48.58264 | 33089 ft | 493 kts | 36° |
| 2026-05-04 23:06 | 14.86184 | -48.53945 | 33094 ft | 493 kts | 36° |
| 2026-05-04 23:06 | 14.91600 | -48.49649 | 33091 ft | 493 kts | 36° |
| 2026-05-04 23:07 | 14.97049 | -48.45324 | 33090 ft | 493 kts | 36° |
| 2026-05-04 23:07 | 15.02491 | -48.41002 | 33088 ft | 493 kts | 36° |
| 2026-05-04 23:08 | 15.07935 | -48.36676 | 33099 ft | 493 kts | 36° |
| 2026-05-04 23:08 | 15.13368 | -48.32356 | 33094 ft | 492 kts | 36° |
| 2026-05-04 23:09 | 15.18791 | -48.28040 | 33091 ft | 491 kts | 36° |
| 2026-05-04 23:09 | 15.24211 | -48.23724 | 33093 ft | 490 kts | 36° |
| 2026-05-04 23:10 | 15.29624 | -48.19411 | 33095 ft | 490 kts | 36° |
| 2026-05-04 23:10 | 15.35015 | -48.15112 | 33094 ft | 489 kts | 36° |
| 2026-05-04 23:11 | 15.40396 | -48.10818 | 33091 ft | 487 kts | 36° |
| 2026-05-04 23:11 | 15.45764 | -48.06532 | 33095 ft | 487 kts | 37° |
| 2026-05-04 23:12 | 15.51127 | -48.02248 | 33096 ft | 486 kts | 36° |
| 2026-05-04 23:12 | 15.56480 | -47.97968 | 33099 ft | 486 kts | 37° |
| 2026-05-04 23:13 | 15.61829 | -47.93689 | 33098 ft | 485 kts | 37° |
| 2026-05-04 23:13 | 15.67139 | -47.89438 | 33100 ft | 485 kts | 37° |
| 2026-05-04 23:14 | 15.72487 | -47.85153 | 33101 ft | 485 kts | 37° |
| 2026-05-04 23:14 | 15.77832 | -47.80868 | 33100 ft | 486 kts | 37° |
| 2026-05-04 23:15 | 15.83177 | -47.76580 | 33101 ft | 485 kts | 37° |
| 2026-05-04 23:15 | 15.88522 | -47.72290 | 33100 ft | 485 kts | 37° |
| 2026-05-04 23:16 | 15.92964 | -47.68721 | 33103 ft | 485 kts | 37° |
| 2026-05-04 23:16 | 15.98302 | -47.64430 | 33108 ft | 485 kts | 37° |
| 2026-05-04 23:17 | 16.03628 | -47.60147 | 33102 ft | 485 kts | 37° |
| 2026-05-04 23:17 | 16.08962 | -47.55853 | 33107 ft | 484 kts | 37° |
| 2026-05-04 23:18 | 16.14286 | -47.51565 | 33106 ft | 484 kts | 37° |
| 2026-05-04 23:18 | 16.19614 | -47.47271 | 33107 ft | 484 kts | 37° |
| 2026-05-04 23:19 | 16.24938 | -47.42976 | 33110 ft | 485 kts | 37° |
| 2026-05-04 23:19 | 16.30274 | -47.38670 | 33109 ft | 485 kts | 37° |
| 2026-05-04 23:20 | 16.35602 | -47.34366 | 33109 ft | 485 kts | 37° |
| 2026-05-04 23:20 | 16.40934 | -47.30056 | 33112 ft | 485 kts | 37° |
| 2026-05-04 23:21 | 16.46262 | -47.25746 | 33105 ft | 485 kts | 37° |
| 2026-05-04 23:21 | 16.51555 | -47.21462 | 33108 ft | 484 kts | 37° |
| 2026-05-04 23:22 | 16.56870 | -47.17156 | 33116 ft | 484 kts | 37° |
| 2026-05-04 23:22 | 16.62187 | -47.12847 | 33112 ft | 484 kts | 37° |
| 2026-05-04 23:23 | 16.67492 | -47.08542 | 33113 ft | 483 kts | 37° |
| 2026-05-04 23:23 | 16.72794 | -47.04239 | 33114 ft | 483 kts | 37° |
| 2026-05-04 23:24 | 16.78090 | -46.99936 | 33114 ft | 482 kts | 37° |
| 2026-05-04 23:24 | 16.83381 | -46.95635 | 33125 ft | 482 kts | 37° |
| 2026-05-04 23:25 | 16.88669 | -46.91332 | 33115 ft | 482 kts | 37° |
| 2026-05-04 23:25 | 16.93952 | -46.87031 | 33117 ft | 481 kts | 37° |
| 2026-05-04 23:26 | 16.99227 | -46.82733 | 33116 ft | 481 kts | 37° |
| 2026-05-04 23:26 | 17.04496 | -46.78438 | 33123 ft | 480 kts | 37° |
| 2026-05-04 23:27 | 17.09756 | -46.74146 | 33112 ft | 479 kts | 37° |
| 2026-05-04 23:27 | 17.15009 | -46.69856 | 33121 ft | 478 kts | 37° |
| 2026-05-04 23:28 | 17.20248 | -46.65575 | 33116 ft | 478 kts | 37° |
| 2026-05-04 23:28 | 17.25484 | -46.61293 | 33125 ft | 477 kts | 37° |
| 2026-05-04 23:29 | 17.30715 | -46.57012 | 33117 ft | 477 kts | 37° |
| 2026-05-04 23:29 | 17.35941 | -46.52732 | 33125 ft | 477 kts | 37° |
| 2026-05-04 23:30 | 17.41165 | -46.48451 | 33119 ft | 477 kts | 37° |
| 2026-05-04 23:30 | 17.46395 | -46.44161 | 33128 ft | 477 kts | 37° |
| 2026-05-04 23:31 | 17.51630 | -46.39864 | 33120 ft | 477 kts | 37° |
| 2026-05-04 23:31 | 17.56820 | -46.35600 | 33131 ft | 477 kts | 37° |
| 2026-05-04 23:32 | 17.62045 | -46.31305 | 33126 ft | 477 kts | 37° |
| 2026-05-04 23:32 | 17.67274 | -46.27003 | 33124 ft | 477 kts | 37° |
| 2026-05-04 23:33 | 17.72493 | -46.22706 | 33123 ft | 476 kts | 37° |
| 2026-05-04 23:33 | 17.77704 | -46.18412 | 33125 ft | 476 kts | 37° |
| 2026-05-04 23:34 | 17.82910 | -46.14119 | 33129 ft | 476 kts | 37° |
| 2026-05-04 23:34 | 17.88119 | -46.09820 | 33132 ft | 476 kts | 37° |
| 2026-05-04 23:35 | 17.93328 | -46.05518 | 33119 ft | 475 kts | 37° |
| 2026-05-04 23:35 | 17.98522 | -46.01225 | 33119 ft | 475 kts | 37° |
| 2026-05-04 23:36 | 18.03448 | -45.96668 | 33127 ft | 475 kts | 42° |
| 2026-05-04 23:36 | 18.08238 | -45.91874 | 33133 ft | 475 kts | 42° |
| 2026-05-04 23:37 | 18.13026 | -45.87083 | 33133 ft | 475 kts | 42° |
| 2026-05-04 23:37 | 18.17825 | -45.82302 | 33128 ft | 475 kts | 42° |
| 2026-05-04 23:38 | 18.22627 | -45.77525 | 33131 ft | 475 kts | 42° |
| 2026-05-04 23:38 | 18.27424 | -45.72750 | 33131 ft | 475 kts | 42° |
| 2026-05-04 23:39 | 18.32223 | -45.67968 | 33129 ft | 475 kts | 42° |
| 2026-05-04 23:39 | 18.37027 | -45.63177 | 33134 ft | 476 kts | 42° |
| 2026-05-04 23:40 | 18.41807 | -45.58406 | 33131 ft | 476 kts | 42° |
| 2026-05-04 23:40 | 18.46646 | -45.53572 | 33132 ft | 476 kts | 42° |
| 2026-05-04 23:41 | 18.51444 | -45.48774 | 33128 ft | 475 kts | 42° |
| 2026-05-04 23:41 | 18.56232 | -45.43984 | 33129 ft | 474 kts | 42° |
| 2026-05-04 23:42 | 18.60979 | -45.39229 | 33132 ft | 474 kts | 42° |
| 2026-05-04 23:42 | 18.65780 | -45.34418 | 33143 ft | 472 kts | 42° |
| 2026-05-04 23:43 | 18.70508 | -45.29675 | 33130 ft | 471 kts | 42° |
| 2026-05-04 23:43 | 18.75259 | -45.24906 | 33136 ft | 471 kts | 42° |
| 2026-05-04 23:44 | 18.80000 | -45.20142 | 33140 ft | 470 kts | 42° |
| 2026-05-04 23:44 | 18.84735 | -45.15381 | 33141 ft | 470 kts | 42° |
| 2026-05-04 23:45 | 18.89463 | -45.10622 | 33138 ft | 470 kts | 42° |
| 2026-05-04 23:45 | 18.94196 | -45.05854 | 33141 ft | 469 kts | 42° |
| 2026-05-04 23:46 | 18.98920 | -45.01092 | 33141 ft | 470 kts | 42° |
| 2026-05-04 23:46 | 19.03702 | -44.96385 | 33142 ft | 469 kts | 41° |
| 2026-05-04 23:47 | 19.08555 | -44.91786 | 33143 ft | 468 kts | 40° |
| 2026-05-04 23:47 | 19.13411 | -44.87187 | 33137 ft | 468 kts | 40° |
| 2026-05-04 23:48 | 19.18220 | -44.82604 | 33134 ft | 468 kts | 40° |
| 2026-05-04 23:48 | 19.23083 | -44.77951 | 33147 ft | 468 kts | 41° |
| 2026-05-04 23:49 | 19.27878 | -44.73357 | 33152 ft | 468 kts | 41° |
| 2026-05-04 23:49 | 19.32705 | -44.68728 | 33140 ft | 468 kts | 41° |
| 2026-05-04 23:50 | 19.37529 | -44.64098 | 33143 ft | 468 kts | 40° |
| 2026-05-04 23:50 | 19.42351 | -44.59468 | 33136 ft | 468 kts | 40° |
| 2026-05-04 23:51 | 19.47170 | -44.54836 | 33158 ft | 467 kts | 40° |
| 2026-05-04 23:51 | 19.51982 | -44.50207 | 33151 ft | 467 kts | 40° |
| 2026-05-04 23:52 | 19.56794 | -44.45575 | 33140 ft | 467 kts | 40° |
| 2026-05-04 23:52 | 19.61608 | -44.40935 | 33144 ft | 467 kts | 40° |
| 2026-05-04 23:53 | 19.66419 | -44.36296 | 33142 ft | 468 kts | 41° |
| 2026-05-04 23:53 | 19.71229 | -44.31653 | 33147 ft | 467 kts | 40° |
| 2026-05-04 23:54 | 19.76045 | -44.27001 | 33160 ft | 467 kts | 40° |
| 2026-05-04 23:54 | 19.80850 | -44.22355 | 33147 ft | 467 kts | 40° |
| 2026-05-04 23:55 | 19.85655 | -44.17705 | 33150 ft | 467 kts | 40° |
| 2026-05-04 23:56 | 19.92866 | -44.10720 | 33147 ft | 467 kts | 41° |
| 2026-05-04 23:56 | 19.97667 | -44.06064 | 33151 ft | 467 kts | 41° |
| 2026-05-04 23:57 | 20.02469 | -44.01403 | 33156 ft | 468 kts | 40° |
| 2026-05-04 23:57 | 20.07244 | -43.96765 | 33152 ft | 468 kts | 40° |
| 2026-05-04 23:58 | 20.12079 | -43.92064 | 33155 ft | 468 kts | 40° |
| 2026-05-04 23:58 | 20.16851 | -43.87420 | 33152 ft | 468 kts | 41° |
| 2026-05-04 23:59 | 20.21654 | -43.82742 | 33157 ft | 468 kts | 40° |
| 2026-05-04 23:59 | 20.26458 | -43.78059 | 33154 ft | 468 kts | 40° |
| 2026-05-05 00:00 | 20.31261 | -43.73373 | 33155 ft | 468 kts | 40° |
| 2026-05-05 00:00 | 20.36060 | -43.68686 | 33159 ft | 468 kts | 41° |
| 2026-05-05 00:01 | 20.40854 | -43.64001 | 33157 ft | 467 kts | 40° |
| 2026-05-05 00:01 | 20.44838 | -43.60103 | 33154 ft | 468 kts | 40° |
| 2026-05-05 00:02 | 20.49627 | -43.55415 | 33156 ft | 467 kts | 40° |
| 2026-05-05 00:02 | 20.54419 | -43.50720 | 33155 ft | 467 kts | 40° |
| 2026-05-05 00:03 | 20.59208 | -43.46023 | 33158 ft | 467 kts | 40° |
| 2026-05-05 00:03 | 20.63996 | -43.41323 | 33160 ft | 468 kts | 40° |
| 2026-05-05 00:04 | 20.68786 | -43.36617 | 33157 ft | 468 kts | 40° |
| 2026-05-05 00:04 | 20.73576 | -43.31907 | 33161 ft | 468 kts | 40° |
| 2026-05-05 00:05 | 20.78361 | -43.27197 | 33154 ft | 467 kts | 40° |
| 2026-05-05 00:05 | 20.83108 | -43.22520 | 33158 ft | 467 kts | 40° |
| 2026-05-05 00:06 | 20.87879 | -43.17816 | 33160 ft | 466 kts | 40° |
| 2026-05-05 00:06 | 20.92646 | -43.13111 | 33157 ft | 466 kts | 40° |
| 2026-05-05 00:07 | 20.97413 | -43.08402 | 33159 ft | 466 kts | 40° |
| 2026-05-05 00:07 | 21.02173 | -43.03696 | 33162 ft | 466 kts | 40° |
| 2026-05-05 00:08 | 21.06939 | -42.98980 | 33160 ft | 467 kts | 40° |
| 2026-05-05 00:08 | 21.11708 | -42.94256 | 33162 ft | 467 kts | 40° |
| 2026-05-05 00:09 | 21.16481 | -42.89524 | 33164 ft | 468 kts | 41° |
| 2026-05-05 00:09 | 21.21262 | -42.84780 | 33163 ft | 468 kts | 41° |
| 2026-05-05 00:10 | 21.26044 | -42.80030 | 33166 ft | 469 kts | 41° |
| 2026-05-05 00:10 | 21.30828 | -42.75274 | 33160 ft | 469 kts | 41° |
| 2026-05-05 00:11 | 21.35610 | -42.70515 | 33161 ft | 469 kts | 41° |
| 2026-05-05 00:11 | 21.40389 | -42.65755 | 33160 ft | 469 kts | 41° |
| 2026-05-05 00:12 | 21.45166 | -42.60992 | 33169 ft | 468 kts | 41° |
| 2026-05-05 00:12 | 21.49907 | -42.56261 | 33162 ft | 468 kts | 41° |
| 2026-05-05 00:13 | 21.54680 | -42.51494 | 33166 ft | 468 kts | 41° |
| 2026-05-05 00:13 | 21.59450 | -42.46725 | 33166 ft | 468 kts | 41° |
| 2026-05-05 00:14 | 21.64219 | -42.41952 | 33166 ft | 468 kts | 41° |
| 2026-05-05 00:14 | 21.68987 | -42.37176 | 33165 ft | 469 kts | 41° |
| 2026-05-05 00:15 | 21.73758 | -42.32393 | 33169 ft | 469 kts | 41° |
| 2026-05-05 00:15 | 21.78534 | -42.27600 | 33167 ft | 469 kts | 41° |
| 2026-05-05 00:16 | 21.83309 | -42.22803 | 33161 ft | 469 kts | 41° |
| 2026-05-05 00:16 | 21.88110 | -42.17975 | 33171 ft | 469 kts | 41° |
| 2026-05-05 00:17 | 21.92850 | -42.13205 | 33163 ft | 470 kts | 41° |
| 2026-05-05 00:17 | 21.97627 | -42.08393 | 33164 ft | 470 kts | 41° |
| 2026-05-05 00:18 | 22.02399 | -42.03581 | 33165 ft | 469 kts | 41° |
| 2026-05-05 00:18 | 22.07164 | -41.98771 | 33166 ft | 469 kts | 41° |
| 2026-05-05 00:19 | 22.11931 | -41.93954 | 33161 ft | 470 kts | 41° |
| 2026-05-05 00:19 | 22.16698 | -41.89133 | 33167 ft | 470 kts | 41° |
| 2026-05-05 00:20 | 22.21463 | -41.84310 | 33168 ft | 469 kts | 41° |
| 2026-05-05 00:20 | 22.26224 | -41.79485 | 33165 ft | 469 kts | 41° |
| 2026-05-05 00:21 | 22.30983 | -41.74657 | 33166 ft | 469 kts | 41° |
| 2026-05-05 00:21 | 22.35742 | -41.69826 | 33165 ft | 469 kts | 41° |
| 2026-05-05 00:22 | 22.40500 | -41.64990 | 33164 ft | 469 kts | 41° |
| 2026-05-05 00:22 | 22.45222 | -41.60186 | 33165 ft | 469 kts | 41° |
| 2026-05-05 00:23 | 22.49976 | -41.55345 | 33177 ft | 469 kts | 41° |
| 2026-05-05 00:23 | 22.54729 | -41.50500 | 33168 ft | 470 kts | 41° |
| 2026-05-05 00:24 | 22.59480 | -41.45653 | 33165 ft | 469 kts | 41° |
| 2026-05-05 00:24 | 22.64229 | -41.40803 | 33165 ft | 469 kts | 41° |
| 2026-05-05 00:25 | 22.68981 | -41.35944 | 33166 ft | 469 kts | 41° |
| 2026-05-05 00:25 | 22.73729 | -41.31085 | 33168 ft | 469 kts | 41° |
| 2026-05-05 00:26 | 22.78476 | -41.26222 | 33163 ft | 470 kts | 41° |
| 2026-05-05 00:26 | 22.83221 | -41.21356 | 33170 ft | 470 kts | 41° |
| 2026-05-05 00:27 | 22.87968 | -41.16483 | 33166 ft | 470 kts | 41° |
| 2026-05-05 00:27 | 22.92714 | -41.11606 | 33167 ft | 470 kts | 41° |
| 2026-05-05 00:28 | 22.97462 | -41.06723 | 33169 ft | 470 kts | 41° |
| 2026-05-05 00:28 | 23.02209 | -41.01835 | 33168 ft | 470 kts | 41° |
| 2026-05-05 00:29 | 23.06950 | -40.96949 | 33169 ft | 470 kts | 41° |
| 2026-05-05 00:29 | 23.11690 | -40.92058 | 33172 ft | 470 kts | 41° |
| 2026-05-05 00:30 | 23.16430 | -40.87162 | 33168 ft | 470 kts | 41° |
| 2026-05-05 00:30 | 23.21172 | -40.82260 | 33175 ft | 470 kts | 41° |
| 2026-05-05 00:31 | 23.25912 | -40.77355 | 33166 ft | 470 kts | 41° |
| 2026-05-05 00:31 | 23.30650 | -40.72446 | 33166 ft | 470 kts | 41° |
| 2026-05-05 00:32 | 23.35359 | -40.67563 | 33173 ft | 471 kts | 41° |
| 2026-05-05 00:32 | 23.40095 | -40.62646 | 33166 ft | 471 kts | 41° |
| 2026-05-05 00:33 | 23.44840 | -40.57715 | 33166 ft | 471 kts | 41° |
| 2026-05-05 00:33 | 23.49574 | -40.52789 | 33165 ft | 471 kts | 41° |
| 2026-05-05 00:34 | 23.54310 | -40.47858 | 33165 ft | 471 kts | 41° |
| 2026-05-05 00:34 | 23.59045 | -40.42921 | 33168 ft | 471 kts | 41° |
| 2026-05-05 00:35 | 23.63778 | -40.37981 | 33166 ft | 471 kts | 41° |
| 2026-05-05 00:35 | 23.68510 | -40.33038 | 33166 ft | 471 kts | 41° |
| 2026-05-05 00:36 | 23.73247 | -40.28084 | 33167 ft | 471 kts | 41° |
| 2026-05-05 00:36 | 23.77981 | -40.23127 | 33171 ft | 472 kts | 41° |
| 2026-05-05 00:37 | 23.82716 | -40.18164 | 33167 ft | 472 kts | 41° |
| 2026-05-05 00:37 | 23.87453 | -40.13195 | 33157 ft | 472 kts | 41° |
| 2026-05-05 00:38 | 23.92182 | -40.08226 | 33160 ft | 472 kts | 41° |
| 2026-05-05 00:38 | 23.96920 | -40.03244 | 33166 ft | 472 kts | 41° |
| 2026-05-05 00:39 | 24.01567 | -39.98218 | 33178 ft | 475 kts | 43° |
| 2026-05-05 00:39 | 24.03826 | -39.95567 | 33376 ft | 477 kts | 44° |
| 2026-05-05 00:39 | 24.06065 | -39.92898 | 33796 ft | 474 kts | 44° |
| 2026-05-05 00:39 | 24.08274 | -39.90250 | 34262 ft | 469 kts | 44° |
| 2026-05-05 00:40 | 24.10467 | -39.87620 | 34656 ft | 466 kts | 44° |
| 2026-05-05 00:40 | 24.12646 | -39.85015 | 34991 ft | 463 kts | 44° |
| 2026-05-05 00:40 | 24.14831 | -39.82409 | 35084 ft | 466 kts | 44° |
| 2026-05-05 00:41 | 24.19227 | -39.77179 | 35147 ft | 466 kts | 44° |
| 2026-05-05 00:41 | 24.23600 | -39.71973 | 35160 ft | 463 kts | 44° |
| 2026-05-05 00:42 | 24.27955 | -39.66783 | 35160 ft | 462 kts | 44° |
| 2026-05-05 00:42 | 24.32296 | -39.61603 | 35170 ft | 461 kts | 43° |
| 2026-05-05 00:43 | 24.36608 | -39.56452 | 35171 ft | 462 kts | 44° |
| 2026-05-05 00:43 | 24.40962 | -39.51248 | 35165 ft | 463 kts | 44° |
| 2026-05-05 00:44 | 24.45321 | -39.46029 | 35160 ft | 465 kts | 44° |
| 2026-05-05 00:44 | 24.49690 | -39.40793 | 35162 ft | 465 kts | 44° |
| 2026-05-05 00:45 | 24.54064 | -39.35544 | 35158 ft | 466 kts | 44° |
| 2026-05-05 00:45 | 24.58439 | -39.30289 | 35155 ft | 466 kts | 44° |
| 2026-05-05 00:46 | 24.62816 | -39.25024 | 35156 ft | 466 kts | 44° |
| 2026-05-05 00:46 | 24.67188 | -39.19762 | 35158 ft | 466 kts | 44° |
| 2026-05-05 00:47 | 24.70815 | -39.15390 | 35157 ft | 465 kts | 44° |
| 2026-05-05 00:47 | 24.75178 | -39.10127 | 35159 ft | 465 kts | 44° |
| 2026-05-05 00:48 | 24.79537 | -39.04863 | 35157 ft | 465 kts | 44° |
| 2026-05-05 00:48 | 24.83891 | -38.99598 | 35155 ft | 465 kts | 44° |
| 2026-05-05 00:49 | 24.88242 | -38.94332 | 35156 ft | 465 kts | 44° |
| 2026-05-05 00:49 | 24.92591 | -38.89062 | 35158 ft | 465 kts | 44° |
| 2026-05-05 00:50 | 24.96936 | -38.83791 | 35153 ft | 465 kts | 44° |
| 2026-05-05 00:50 | 25.01282 | -38.78513 | 35154 ft | 465 kts | 44° |
| 2026-05-05 00:51 | 25.05629 | -38.73227 | 35158 ft | 465 kts | 44° |
| 2026-05-05 00:51 | 25.09975 | -38.67937 | 35158 ft | 465 kts | 44° |
| 2026-05-05 00:52 | 25.14295 | -38.62672 | 35160 ft | 466 kts | 44° |
| 2026-05-05 00:52 | 25.18651 | -38.57357 | 35158 ft | 467 kts | 44° |
| 2026-05-05 00:53 | 25.23012 | -38.52031 | 35156 ft | 468 kts | 44° |
| 2026-05-05 00:53 | 25.27405 | -38.46658 | 35148 ft | 468 kts | 44° |
| 2026-05-05 00:54 | 25.31765 | -38.41320 | 35151 ft | 468 kts | 44° |
| 2026-05-05 00:54 | 25.36102 | -38.36003 | 35151 ft | 468 kts | 44° |
| 2026-05-05 00:55 | 25.40461 | -38.30654 | 35147 ft | 468 kts | 44° |
| 2026-05-05 00:55 | 25.44818 | -38.25301 | 35153 ft | 468 kts | 44° |
| 2026-05-05 00:56 | 25.49170 | -38.19948 | 35156 ft | 468 kts | 44° |
| 2026-05-05 00:56 | 25.53525 | -38.14584 | 35156 ft | 468 kts | 44° |
| 2026-05-05 00:57 | 25.57881 | -38.09215 | 35150 ft | 469 kts | 44° |
| 2026-05-05 00:57 | 25.62237 | -38.03837 | 35154 ft | 469 kts | 44° |
| 2026-05-05 00:58 | 25.66595 | -37.98451 | 35151 ft | 469 kts | 44° |
| 2026-05-05 00:58 | 25.70955 | -37.93057 | 35162 ft | 469 kts | 44° |
| 2026-05-05 00:59 | 25.75308 | -37.87664 | 35149 ft | 469 kts | 44° |
| 2026-05-05 00:59 | 25.79656 | -37.82271 | 35150 ft | 468 kts | 44° |
| 2026-05-05 01:00 | 25.83992 | -37.76886 | 35150 ft | 468 kts | 44° |
| 2026-05-05 01:00 | 25.88295 | -37.71536 | 35167 ft | 467 kts | 44° |
| 2026-05-05 01:01 | 25.92620 | -37.66153 | 35147 ft | 467 kts | 44° |
| 2026-05-05 01:01 | 25.96942 | -37.60768 | 35143 ft | 467 kts | 44° |
| 2026-05-05 01:02 | 26.01260 | -37.55381 | 35144 ft | 466 kts | 44° |
| 2026-05-05 01:02 | 26.05574 | -37.49992 | 35144 ft | 466 kts | 44° |
| 2026-05-05 01:03 | 26.09884 | -37.44601 | 35151 ft | 466 kts | 43° |
| 2026-05-05 01:03 | 26.14194 | -37.39205 | 35143 ft | 467 kts | 43° |
| 2026-05-05 01:04 | 26.18502 | -37.33803 | 35142 ft | 466 kts | 44° |
| 2026-05-05 01:04 | 26.24961 | -37.25695 | 35141 ft | 466 kts | 44° |
| 2026-05-05 01:05 | 26.29264 | -37.20283 | 35152 ft | 467 kts | 43° |
| 2026-05-05 01:05 | 26.33574 | -37.14856 | 35144 ft | 467 kts | 43° |
| 2026-05-05 01:06 | 26.37883 | -37.09425 | 35141 ft | 467 kts | 43° |
| 2026-05-05 01:06 | 26.42157 | -37.04031 | 35141 ft | 467 kts | 43° |
| 2026-05-05 01:07 | 26.46460 | -36.98594 | 35151 ft | 467 kts | 43° |
| 2026-05-05 01:07 | 26.50761 | -36.93152 | 35136 ft | 468 kts | 43° |
| 2026-05-05 01:08 | 26.55061 | -36.87705 | 35139 ft | 468 kts | 43° |
| 2026-05-05 01:08 | 26.59362 | -36.82249 | 35139 ft | 468 kts | 43° |
| 2026-05-05 01:09 | 26.63664 | -36.76787 | 35138 ft | 468 kts | 43° |
| 2026-05-05 01:09 | 26.67962 | -36.71321 | 35155 ft | 468 kts | 43° |
| 2026-05-05 01:10 | 26.72263 | -36.65847 | 35139 ft | 468 kts | 43° |
| 2026-05-05 01:10 | 26.76558 | -36.60372 | 35135 ft | 468 kts | 43° |
| 2026-05-05 01:11 | 26.80852 | -36.54892 | 35136 ft | 468 kts | 43° |
| 2026-05-05 01:11 | 26.85142 | -36.49411 | 35136 ft | 468 kts | 43° |
| 2026-05-05 01:12 | 26.89427 | -36.43928 | 35136 ft | 468 kts | 43° |
| 2026-05-05 01:12 | 26.93710 | -36.38442 | 35136 ft | 468 kts | 43° |
| 2026-05-05 01:13 | 26.97965 | -36.32985 | 35133 ft | 468 kts | 43° |
| 2026-05-05 01:13 | 27.02245 | -36.27488 | 35135 ft | 468 kts | 43° |
| 2026-05-05 01:14 | 27.06530 | -36.21979 | 35149 ft | 468 kts | 43° |
| 2026-05-05 01:14 | 27.10815 | -36.16463 | 35138 ft | 469 kts | 43° |
| 2026-05-05 01:15 | 27.15099 | -36.10940 | 35134 ft | 469 kts | 43° |
| 2026-05-05 01:15 | 27.19384 | -36.05409 | 35126 ft | 469 kts | 43° |
| 2026-05-05 01:16 | 27.23669 | -35.99870 | 35139 ft | 469 kts | 43° |
| 2026-05-05 01:16 | 27.27954 | -35.94326 | 35130 ft | 469 kts | 43° |
| 2026-05-05 01:17 | 27.32232 | -35.88783 | 35132 ft | 469 kts | 43° |
| 2026-05-05 01:17 | 27.36503 | -35.83241 | 35130 ft | 468 kts | 43° |
| 2026-05-05 01:18 | 27.40765 | -35.77705 | 35131 ft | 468 kts | 43° |
| 2026-05-05 01:18 | 27.45019 | -35.72171 | 35142 ft | 467 kts | 43° |
| 2026-05-05 01:19 | 27.49262 | -35.66644 | 35140 ft | 465 kts | 43° |
| 2026-05-05 01:19 | 27.53486 | -35.61135 | 35128 ft | 464 kts | 43° |
| 2026-05-05 01:20 | 27.57695 | -35.55640 | 35129 ft | 462 kts | 43° |
| 2026-05-05 01:20 | 27.61866 | -35.50187 | 35131 ft | 461 kts | 43° |
| 2026-05-05 01:21 | 27.66054 | -35.44705 | 35132 ft | 461 kts | 43° |
| 2026-05-05 01:21 | 27.70239 | -35.39220 | 35127 ft | 461 kts | 43° |
| 2026-05-05 01:22 | 27.74422 | -35.33730 | 35124 ft | 461 kts | 43° |
| 2026-05-05 01:22 | 27.78603 | -35.28236 | 35127 ft | 462 kts | 43° |
| 2026-05-05 01:23 | 27.82790 | -35.22727 | 35147 ft | 462 kts | 43° |
| 2026-05-05 01:23 | 27.86984 | -35.17202 | 35130 ft | 463 kts | 43° |
| 2026-05-05 01:24 | 27.91177 | -35.11668 | 35127 ft | 463 kts | 43° |
| 2026-05-05 01:24 | 27.95371 | -35.06127 | 35128 ft | 464 kts | 43° |
| 2026-05-05 01:25 | 27.99559 | -35.00580 | 35123 ft | 464 kts | 43° |
| 2026-05-05 01:25 | 28.03443 | -34.94699 | 35135 ft | 468 kts | 47° |
| 2026-05-05 01:26 | 28.07221 | -34.88701 | 35131 ft | 467 kts | 47° |
| 2026-05-05 01:26 | 28.10997 | -34.82711 | 35126 ft | 467 kts | 47° |
| 2026-05-05 01:27 | 28.14751 | -34.76773 | 35128 ft | 466 kts | 47° |
| 2026-05-05 01:27 | 28.18526 | -34.70806 | 35142 ft | 466 kts | 47° |
| 2026-05-05 01:28 | 28.22297 | -34.64841 | 35126 ft | 465 kts | 47° |
| 2026-05-05 01:28 | 28.26061 | -34.58877 | 35124 ft | 464 kts | 47° |
| 2026-05-05 01:29 | 28.29819 | -34.52914 | 35134 ft | 464 kts | 47° |
| 2026-05-05 01:29 | 28.33567 | -34.46957 | 35158 ft | 463 kts | 47° |
| 2026-05-05 01:30 | 28.37311 | -34.40999 | 35132 ft | 463 kts | 47° |
| 2026-05-05 01:30 | 28.41050 | -34.35041 | 35127 ft | 463 kts | 47° |
| 2026-05-05 01:31 | 28.44784 | -34.29083 | 35125 ft | 463 kts | 47° |
| 2026-05-05 01:31 | 28.48517 | -34.23117 | 35125 ft | 463 kts | 47° |
| 2026-05-05 01:32 | 28.52248 | -34.17147 | 35134 ft | 464 kts | 47° |
| 2026-05-05 01:32 | 28.55982 | -34.11163 | 35126 ft | 464 kts | 47° |
| 2026-05-05 01:33 | 28.59716 | -34.05170 | 35123 ft | 464 kts | 47° |
| 2026-05-05 01:33 | 28.63424 | -33.99211 | 35122 ft | 464 kts | 47° |
| 2026-05-05 01:34 | 28.67154 | -33.93207 | 35125 ft | 464 kts | 47° |
| 2026-05-05 01:34 | 28.70274 | -33.88179 | 35124 ft | 464 kts | 47° |
| 2026-05-05 01:35 | 28.73980 | -33.82200 | 35118 ft | 464 kts | 47° |
| 2026-05-05 01:35 | 28.77701 | -33.76187 | 35120 ft | 464 kts | 47° |
| 2026-05-05 01:36 | 28.81423 | -33.70164 | 35124 ft | 464 kts | 47° |
| 2026-05-05 01:36 | 28.85143 | -33.64136 | 35121 ft | 465 kts | 47° |
| 2026-05-05 01:37 | 28.88860 | -33.58103 | 35119 ft | 464 kts | 47° |
| 2026-05-05 01:37 | 28.92568 | -33.52077 | 35120 ft | 464 kts | 47° |
| 2026-05-05 01:38 | 28.96271 | -33.46049 | 35119 ft | 464 kts | 47° |
| 2026-05-05 01:38 | 28.99972 | -33.40016 | 35148 ft | 463 kts | 46° |
| 2026-05-05 01:39 | 29.03665 | -33.33989 | 35124 ft | 462 kts | 46° |
| 2026-05-05 01:39 | 29.07339 | -33.27981 | 35117 ft | 460 kts | 46° |
| 2026-05-05 01:40 | 29.10998 | -33.21992 | 35119 ft | 459 kts | 46° |
| 2026-05-05 01:40 | 29.14649 | -33.16008 | 35120 ft | 458 kts | 46° |
| 2026-05-05 01:41 | 29.18290 | -33.10031 | 35135 ft | 457 kts | 46° |
| 2026-05-05 01:41 | 29.21918 | -33.04065 | 35121 ft | 456 kts | 46° |
| 2026-05-05 01:42 | 29.25531 | -32.98115 | 35123 ft | 454 kts | 46° |
| 2026-05-05 01:42 | 29.29127 | -32.92188 | 35121 ft | 453 kts | 46° |
| 2026-05-05 01:43 | 29.32714 | -32.86266 | 35136 ft | 452 kts | 46° |
| 2026-05-05 01:43 | 29.36296 | -32.80344 | 35123 ft | 452 kts | 46° |
| 2026-05-05 01:44 | 29.39846 | -32.74466 | 35114 ft | 451 kts | 46° |
| 2026-05-05 01:44 | 29.43411 | -32.68554 | 35114 ft | 450 kts | 46° |
| 2026-05-05 01:45 | 29.46969 | -32.62647 | 35117 ft | 450 kts | 46° |
| 2026-05-05 01:45 | 29.50527 | -32.56731 | 35120 ft | 451 kts | 46° |
| 2026-05-05 01:46 | 29.54086 | -32.50804 | 35115 ft | 450 kts | 46° |
| 2026-05-05 01:46 | 29.57634 | -32.44886 | 35114 ft | 450 kts | 47° |
| 2026-05-05 01:47 | 29.61178 | -32.38966 | 35116 ft | 449 kts | 47° |
| 2026-05-05 01:47 | 29.64718 | -32.33046 | 35155 ft | 449 kts | 47° |
| 2026-05-05 01:48 | 29.68254 | -32.27122 | 35121 ft | 449 kts | 47° |
| 2026-05-05 01:48 | 29.71782 | -32.21204 | 35111 ft | 448 kts | 47° |
| 2026-05-05 01:49 | 29.75297 | -32.15298 | 35112 ft | 447 kts | 47° |
| 2026-05-05 01:49 | 29.78785 | -32.09431 | 35114 ft | 446 kts | 47° |
| 2026-05-05 01:50 | 29.82287 | -32.03532 | 35108 ft | 447 kts | 47° |
| 2026-05-05 01:50 | 29.85792 | -31.97620 | 35114 ft | 447 kts | 47° |
| 2026-05-05 01:51 | 29.89294 | -31.91703 | 35112 ft | 447 kts | 47° |
| 2026-05-05 01:51 | 29.92797 | -31.85775 | 35114 ft | 447 kts | 47° |
| 2026-05-05 01:52 | 29.96298 | -31.79843 | 35151 ft | 448 kts | 47° |
| 2026-05-05 01:52 | 29.99805 | -31.73894 | 35124 ft | 449 kts | 48° |
| 2026-05-05 01:53 | 30.03317 | -31.67924 | 35114 ft | 450 kts | 48° |
| 2026-05-05 01:53 | 30.06829 | -31.61946 | 35114 ft | 450 kts | 48° |
| 2026-05-05 01:54 | 30.10334 | -31.55968 | 35119 ft | 449 kts | 48° |
| 2026-05-05 01:54 | 30.13836 | -31.49992 | 35135 ft | 450 kts | 49° |
| 2026-05-05 01:55 | 30.17348 | -31.43991 | 35109 ft | 452 kts | 49° |
| 2026-05-05 01:55 | 30.20876 | -31.37952 | 35102 ft | 454 kts | 49° |
| 2026-05-05 01:56 | 30.24389 | -31.31927 | 35109 ft | 456 kts | 49° |
| 2026-05-05 01:56 | 30.27936 | -31.25833 | 35112 ft | 456 kts | 49° |
| 2026-05-05 01:57 | 30.31478 | -31.19739 | 35105 ft | 456 kts | 49° |
| 2026-05-05 01:57 | 30.35018 | -31.13640 | 35111 ft | 456 kts | 49° |
| 2026-05-05 01:58 | 30.38551 | -31.07543 | 35118 ft | 455 kts | 49° |
| 2026-05-05 01:58 | 30.42077 | -31.01451 | 35124 ft | 455 kts | 49° |
| 2026-05-05 01:59 | 30.45594 | -30.95366 | 35122 ft | 455 kts | 50° |
| 2026-05-05 01:59 | 30.49131 | -30.89240 | 35123 ft | 459 kts | 50° |
| 2026-05-05 02:00 | 30.52692 | -30.83062 | 35128 ft | 462 kts | 50° |
| 2026-05-05 02:00 | 30.56267 | -30.76844 | 35117 ft | 464 kts | 50° |
| 2026-05-05 02:01 | 30.59841 | -30.70617 | 35113 ft | 463 kts | 50° |
| 2026-05-05 02:01 | 30.63410 | -30.64392 | 35120 ft | 464 kts | 51° |
| 2026-05-05 02:02 | 30.66995 | -30.58132 | 35121 ft | 467 kts | 51° |
| 2026-05-05 02:02 | 30.70596 | -30.51833 | 35120 ft | 469 kts | 51° |
| 2026-05-05 02:03 | 30.74210 | -30.45500 | 35117 ft | 471 kts | 51° |
| 2026-05-05 02:03 | 30.77827 | -30.39151 | 35128 ft | 471 kts | 52° |
| 2026-05-05 02:04 | 30.81433 | -30.32812 | 35122 ft | 474 kts | 52° |
| 2026-05-05 02:04 | 30.85078 | -30.26392 | 35118 ft | 476 kts | 52° |
| 2026-05-05 02:05 | 30.88730 | -30.19951 | 35116 ft | 477 kts | 52° |
| 2026-05-05 02:05 | 30.92385 | -30.13491 | 35120 ft | 478 kts | 52° |
| 2026-05-05 02:06 | 30.96040 | -30.07023 | 35120 ft | 478 kts | 53° |
| 2026-05-05 02:06 | 30.99767 | -30.00601 | 35121 ft | 477 kts | 49° |
| 2026-05-05 02:07 | 31.04217 | -29.94918 | 35122 ft | 474 kts | 41° |
| 2026-05-05 02:07 | 31.08911 | -29.89516 | 35118 ft | 474 kts | 41° |
| 2026-05-05 02:08 | 31.13596 | -29.84091 | 35123 ft | 475 kts | 42° |
| 2026-05-05 02:08 | 31.18266 | -29.78632 | 35121 ft | 475 kts | 42° |
| 2026-05-05 02:09 | 31.22930 | -29.73152 | 35123 ft | 476 kts | 42° |
| 2026-05-05 02:09 | 31.27592 | -29.67663 | 35128 ft | 476 kts | 42° |
| 2026-05-05 02:10 | 31.32253 | -29.62170 | 35129 ft | 476 kts | 42° |
| 2026-05-05 02:10 | 31.36917 | -29.56665 | 35125 ft | 476 kts | 42° |
| 2026-05-05 02:11 | 31.41581 | -29.51153 | 35136 ft | 476 kts | 42° |
| 2026-05-05 02:11 | 31.46245 | -29.45633 | 35123 ft | 476 kts | 42° |
| 2026-05-05 02:12 | 31.53204 | -29.37382 | 35130 ft | 476 kts | 42° |
| 2026-05-05 02:13 | 31.57860 | -29.31851 | 35130 ft | 476 kts | 42° |
| 2026-05-05 02:13 | 31.62513 | -29.26316 | 35127 ft | 477 kts | 42° |
| 2026-05-05 02:14 | 31.67171 | -29.20763 | 35136 ft | 477 kts | 43° |
| 2026-05-05 02:14 | 31.71832 | -29.15199 | 35134 ft | 478 kts | 43° |
| 2026-05-05 02:15 | 31.76497 | -29.09627 | 35139 ft | 479 kts | 42° |
| 2026-05-05 02:15 | 31.81169 | -29.04030 | 35138 ft | 479 kts | 43° |
| 2026-05-05 02:16 | 31.85835 | -28.98436 | 35137 ft | 479 kts | 44° |
| 2026-05-05 02:16 | 31.90498 | -28.92837 | 35140 ft | 480 kts | 44° |
| 2026-05-05 02:17 | 31.95172 | -28.87216 | 35142 ft | 481 kts | 43° |
| 2026-05-05 02:17 | 31.99853 | -28.81584 | 35144 ft | 482 kts | 42° |
| 2026-05-05 02:18 | 32.04510 | -28.75961 | 35148 ft | 482 kts | 43° |
| 2026-05-05 02:18 | 32.09196 | -28.70295 | 35148 ft | 482 kts | 43° |
| 2026-05-05 02:19 | 32.13880 | -28.64630 | 35147 ft | 483 kts | 42° |
| 2026-05-05 02:19 | 32.18573 | -28.58942 | 35151 ft | 484 kts | 43° |
| 2026-05-05 02:20 | 32.23278 | -28.53233 | 35153 ft | 486 kts | 44° |
| 2026-05-05 02:20 | 32.27994 | -28.47498 | 35149 ft | 487 kts | 44° |
| 2026-05-05 02:21 | 32.32711 | -28.41751 | 35154 ft | 487 kts | 43° |
| 2026-05-05 02:21 | 32.37435 | -28.35991 | 35163 ft | 487 kts | 43° |
| 2026-05-05 02:22 | 32.41351 | -28.31205 | 35153 ft | 487 kts | 43° |
| 2026-05-05 02:22 | 32.46056 | -28.25447 | 35150 ft | 486 kts | 43° |
| 2026-05-05 02:23 | 32.50748 | -28.19704 | 35161 ft | 485 kts | 43° |
| 2026-05-05 02:23 | 32.55431 | -28.13955 | 35159 ft | 484 kts | 43° |
| 2026-05-05 02:24 | 32.60102 | -28.08209 | 35166 ft | 484 kts | 43° |
| 2026-05-05 02:24 | 32.64781 | -28.02450 | 35168 ft | 486 kts | 44° |
| 2026-05-05 02:25 | 32.69486 | -27.96653 | 35170 ft | 489 kts | 44° |
| 2026-05-05 02:25 | 32.74217 | -27.90811 | 35167 ft | 491 kts | 43° |
| 2026-05-05 02:26 | 32.78959 | -27.84944 | 35169 ft | 492 kts | 43° |
| 2026-05-05 02:26 | 32.83666 | -27.79107 | 35172 ft | 492 kts | 45° |
| 2026-05-05 02:27 | 32.88428 | -27.73195 | 35175 ft | 492 kts | 43° |
| 2026-05-05 02:27 | 32.93136 | -27.67339 | 35173 ft | 494 kts | 43° |
| 2026-05-05 02:28 | 32.97888 | -27.61422 | 35156 ft | 495 kts | 44° |
| 2026-05-05 02:28 | 33.02645 | -27.55490 | 35183 ft | 495 kts | 45° |
| 2026-05-05 02:29 | 33.07394 | -27.49555 | 35181 ft | 493 kts | 44° |
| 2026-05-05 02:29 | 33.12126 | -27.43630 | 35162 ft | 493 kts | 45° |
| 2026-05-05 02:30 | 33.16868 | -27.37687 | 35172 ft | 495 kts | 44° |
| 2026-05-05 02:30 | 33.21624 | -27.31717 | 35172 ft | 497 kts | 44° |
| 2026-05-05 02:31 | 33.26390 | -27.25718 | 35175 ft | 497 kts | 43° |
| 2026-05-05 02:31 | 33.31147 | -27.19720 | 35174 ft | 497 kts | 45° |
| 2026-05-05 02:32 | 33.35898 | -27.13728 | 35177 ft | 497 kts | 45° |
| 2026-05-05 02:32 | 33.40653 | -27.07718 | 35181 ft | 497 kts | 45° |
| 2026-05-05 02:33 | 33.45403 | -27.01700 | 35182 ft | 497 kts | 45° |
| 2026-05-05 02:33 | 33.50141 | -26.95687 | 35177 ft | 496 kts | 44° |
| 2026-05-05 02:34 | 33.54839 | -26.89715 | 35182 ft | 495 kts | 44° |
| 2026-05-05 02:34 | 33.59562 | -26.83703 | 35191 ft | 495 kts | 45° |
| 2026-05-05 02:35 | 33.64298 | -26.77666 | 35188 ft | 497 kts | 45° |
| 2026-05-05 02:35 | 33.69044 | -26.71605 | 35190 ft | 498 kts | 45° |
| 2026-05-05 02:36 | 33.73784 | -26.65535 | 35196 ft | 497 kts | 44° |
| 2026-05-05 02:36 | 33.78488 | -26.59506 | 35190 ft | 491 kts | 45° |
| 2026-05-05 02:37 | 33.83146 | -26.53524 | 35188 ft | 491 kts | 44° |
| 2026-05-05 02:37 | 33.87824 | -26.47513 | 35202 ft | 498 kts | 45° |
| 2026-05-05 02:38 | 33.92603 | -26.41354 | 35198 ft | 499 kts | 45° |
| 2026-05-05 02:38 | 33.97289 | -26.35303 | 35191 ft | 496 kts | 45° |
| 2026-05-05 02:39 | 34.01980 | -26.29236 | 35198 ft | 494 kts | 44° |
| 2026-05-05 02:39 | 34.06658 | -26.23177 | 35212 ft | 494 kts | 44° |
| 2026-05-05 02:40 | 34.11356 | -26.17082 | 35213 ft | 497 kts | 45° |
| 2026-05-05 02:40 | 34.16062 | -26.10966 | 35202 ft | 497 kts | 45° |
| 2026-05-05 02:41 | 34.20760 | -26.04848 | 35204 ft | 496 kts | 46° |
| 2026-05-05 02:41 | 34.25437 | -25.98747 | 35211 ft | 494 kts | 45° |
| 2026-05-05 02:42 | 34.30108 | -25.92644 | 35212 ft | 494 kts | 45° |
| 2026-05-05 02:42 | 34.34775 | -25.86535 | 35207 ft | 495 kts | 45° |
| 2026-05-05 02:43 | 34.39450 | -25.80406 | 35226 ft | 495 kts | 45° |
| 2026-05-05 02:43 | 34.44122 | -25.74269 | 35215 ft | 495 kts | 45° |
| 2026-05-05 02:44 | 34.48785 | -25.68127 | 35206 ft | 495 kts | 45° |
| 2026-05-05 02:44 | 34.53414 | -25.62028 | 35218 ft | 495 kts | 46° |
| 2026-05-05 02:45 | 34.58072 | -25.55880 | 35216 ft | 495 kts | 45° |
| 2026-05-05 02:45 | 34.62724 | -25.49724 | 35216 ft | 495 kts | 45° |
| 2026-05-05 02:46 | 34.67379 | -25.43556 | 35218 ft | 496 kts | 46° |
| 2026-05-05 02:46 | 34.72034 | -25.37374 | 35223 ft | 496 kts | 45° |
| 2026-05-05 02:47 | 34.76685 | -25.31187 | 35223 ft | 496 kts | 46° |
| 2026-05-05 02:47 | 34.81336 | -25.24988 | 35222 ft | 496 kts | 45° |
| 2026-05-05 02:48 | 34.85981 | -25.18788 | 35226 ft | 496 kts | 45° |
| 2026-05-05 02:48 | 34.90624 | -25.12578 | 35223 ft | 496 kts | 46° |
| 2026-05-05 02:49 | 34.95263 | -25.06361 | 35222 ft | 495 kts | 46° |
| 2026-05-05 02:49 | 34.99892 | -25.00135 | 35228 ft | 496 kts | 47° |
| 2026-05-05 02:50 | 35.04230 | -24.93581 | 35235 ft | 497 kts | 50° |
| 2026-05-05 02:50 | 35.08472 | -24.86913 | 35216 ft | 497 kts | 50° |
| 2026-05-05 02:51 | 35.12714 | -24.80244 | 35229 ft | 497 kts | 50° |
| 2026-05-05 02:51 | 35.16975 | -24.73574 | 35237 ft | 497 kts | 50° |
| 2026-05-05 02:52 | 35.21235 | -24.66912 | 35223 ft | 497 kts | 50° |
| 2026-05-05 02:52 | 35.25494 | -24.60241 | 35221 ft | 497 kts | 50° |
| 2026-05-05 02:53 | 35.29721 | -24.53606 | 35245 ft | 497 kts | 50° |
| 2026-05-05 02:53 | 35.33971 | -24.46919 | 35228 ft | 497 kts | 50° |
| 2026-05-05 02:54 | 35.38216 | -24.40228 | 35227 ft | 497 kts | 50° |
| 2026-05-05 02:54 | 35.42459 | -24.33526 | 35237 ft | 498 kts | 50° |
| 2026-05-05 02:55 | 35.46709 | -24.26801 | 35233 ft | 499 kts | 50° |
| 2026-05-05 02:55 | 35.50958 | -24.20066 | 35235 ft | 499 kts | 50° |
| 2026-05-05 02:56 | 35.55204 | -24.13321 | 35236 ft | 500 kts | 50° |
| 2026-05-05 02:56 | 35.59452 | -24.06560 | 35240 ft | 500 kts | 50° |
| 2026-05-05 02:57 | 35.63698 | -23.99788 | 35240 ft | 500 kts | 50° |
| 2026-05-05 02:57 | 35.67947 | -23.92999 | 35240 ft | 500 kts | 50° |
| 2026-05-05 02:58 | 35.72189 | -23.86208 | 35239 ft | 500 kts | 50° |
| 2026-05-05 02:58 | 35.76430 | -23.79406 | 35245 ft | 501 kts | 50° |
| 2026-05-05 02:59 | 35.80671 | -23.72589 | 35246 ft | 502 kts | 50° |
| 2026-05-05 02:59 | 35.84916 | -23.65753 | 35239 ft | 503 kts | 50° |
| 2026-05-05 03:00 | 35.89168 | -23.58892 | 35243 ft | 503 kts | 50° |
| 2026-05-05 03:00 | 35.93387 | -23.52070 | 35247 ft | 503 kts | 50° |
| 2026-05-05 03:01 | 35.97630 | -23.45195 | 35246 ft | 503 kts | 50° |
| 2026-05-05 03:01 | 36.01874 | -23.38306 | 35242 ft | 504 kts | 50° |
| 2026-05-05 03:02 | 36.06118 | -23.31404 | 35249 ft | 504 kts | 50° |
| 2026-05-05 03:02 | 36.10350 | -23.24505 | 35244 ft | 504 kts | 50° |
| 2026-05-05 03:03 | 36.14583 | -23.17593 | 35242 ft | 504 kts | 50° |
| 2026-05-05 03:03 | 36.18809 | -23.10677 | 35247 ft | 504 kts | 50° |
| 2026-05-05 03:04 | 36.23006 | -23.03794 | 35246 ft | 504 kts | 50° |
| 2026-05-05 03:04 | 36.27232 | -22.96852 | 35248 ft | 504 kts | 50° |
| 2026-05-05 03:05 | 36.31449 | -22.89909 | 35250 ft | 504 kts | 51° |
| 2026-05-05 03:05 | 36.35669 | -22.82945 | 35250 ft | 504 kts | 51° |
| 2026-05-05 03:06 | 36.39883 | -22.75980 | 35251 ft | 505 kts | 51° |
| 2026-05-05 03:06 | 36.44093 | -22.69005 | 35255 ft | 505 kts | 51° |
| 2026-05-05 03:07 | 36.48306 | -22.62013 | 35253 ft | 506 kts | 51° |
| 2026-05-05 03:07 | 36.52519 | -22.55005 | 35251 ft | 506 kts | 51° |
| 2026-05-05 03:08 | 36.56728 | -22.47989 | 35251 ft | 506 kts | 51° |
| 2026-05-05 03:08 | 36.60940 | -22.40954 | 35254 ft | 507 kts | 51° |
| 2026-05-05 03:09 | 36.64437 | -22.35103 | 35252 ft | 507 kts | 51° |
| 2026-05-05 03:09 | 36.68643 | -22.28051 | 35254 ft | 507 kts | 51° |
| 2026-05-05 03:10 | 36.72846 | -22.20989 | 35253 ft | 507 kts | 51° |
| 2026-05-05 03:10 | 36.77046 | -22.13918 | 35259 ft | 507 kts | 51° |
| 2026-05-05 03:11 | 36.81245 | -22.06834 | 35258 ft | 508 kts | 51° |
| 2026-05-05 03:11 | 36.85445 | -21.99734 | 35258 ft | 508 kts | 51° |
| 2026-05-05 03:12 | 36.89643 | -21.92621 | 35256 ft | 508 kts | 51° |
| 2026-05-05 03:12 | 36.93832 | -21.85508 | 35256 ft | 508 kts | 51° |
| 2026-05-05 03:13 | 36.97996 | -21.78423 | 35261 ft | 509 kts | 51° |
| 2026-05-05 03:13 | 37.02185 | -21.71281 | 35259 ft | 509 kts | 51° |
| 2026-05-05 03:14 | 37.06376 | -21.64120 | 35262 ft | 509 kts | 51° |
| 2026-05-05 03:14 | 37.10559 | -21.56959 | 35274 ft | 510 kts | 51° |
| 2026-05-05 03:15 | 37.14743 | -21.49780 | 35260 ft | 510 kts | 51° |
| 2026-05-05 03:15 | 37.18927 | -21.42584 | 35263 ft | 511 kts | 51° |
| 2026-05-05 03:16 | 37.23112 | -21.35372 | 35260 ft | 511 kts | 51° |
| 2026-05-05 03:16 | 37.27296 | -21.28145 | 35265 ft | 512 kts | 51° |
| 2026-05-05 03:17 | 37.31476 | -21.20911 | 35263 ft | 512 kts | 51° |
| 2026-05-05 03:17 | 37.35651 | -21.13668 | 35262 ft | 512 kts | 52° |
| 2026-05-05 03:18 | 37.39827 | -21.06410 | 35265 ft | 512 kts | 52° |
| 2026-05-05 03:18 | 37.44000 | -20.99140 | 35289 ft | 513 kts | 52° |
| 2026-05-05 03:19 | 37.50257 | -20.88209 | 35263 ft | 513 kts | 52° |
| 2026-05-05 03:19 | 37.54424 | -20.80910 | 35263 ft | 513 kts | 52° |
| 2026-05-05 03:20 | 37.58585 | -20.73606 | 35249 ft | 513 kts | 52° |
| 2026-05-05 03:20 | 37.62742 | -20.66291 | 35267 ft | 513 kts | 52° |
| 2026-05-05 03:21 | 37.66897 | -20.58965 | 35263 ft | 513 kts | 52° |
| 2026-05-05 03:21 | 37.71047 | -20.51630 | 35264 ft | 513 kts | 52° |
| 2026-05-05 03:22 | 37.75172 | -20.44325 | 35254 ft | 514 kts | 52° |
| 2026-05-05 03:22 | 37.79318 | -20.36965 | 35263 ft | 514 kts | 52° |
| 2026-05-05 03:23 | 37.83466 | -20.29586 | 35269 ft | 514 kts | 52° |
| 2026-05-05 03:23 | 37.87605 | -20.22205 | 35272 ft | 515 kts | 52° |
| 2026-05-05 03:24 | 37.91745 | -20.14806 | 35270 ft | 515 kts | 52° |
| 2026-05-05 03:24 | 37.95881 | -20.07398 | 35270 ft | 515 kts | 52° |
| 2026-05-05 03:25 | 38.00149 | -20.00122 | 35268 ft | 513 kts | 46° |
| 2026-05-05 03:25 | 38.05210 | -19.93805 | 35277 ft | 509 kts | 39° |
| 2026-05-05 03:26 | 38.10496 | -19.87823 | 35279 ft | 509 kts | 38° |
| 2026-05-05 03:26 | 38.15765 | -19.81814 | 35276 ft | 509 kts | 39° |
| 2026-05-05 03:27 | 38.20976 | -19.75802 | 35272 ft | 509 kts | 39° |
| 2026-05-05 03:27 | 38.26209 | -19.69727 | 35270 ft | 509 kts | 39° |
| 2026-05-05 03:28 | 38.31433 | -19.63649 | 35267 ft | 509 kts | 39° |
| 2026-05-05 03:28 | 38.36653 | -19.57566 | 35294 ft | 508 kts | 39° |
| 2026-05-05 03:29 | 38.41865 | -19.51482 | 35274 ft | 507 kts | 39° |
| 2026-05-05 03:29 | 38.47053 | -19.45414 | 35276 ft | 506 kts | 39° |
| 2026-05-05 03:30 | 38.52232 | -19.39344 | 35273 ft | 505 kts | 39° |
| 2026-05-05 03:30 | 38.57402 | -19.33272 | 35276 ft | 505 kts | 39° |
| 2026-05-05 03:31 | 38.62573 | -19.27188 | 35278 ft | 505 kts | 39° |
| 2026-05-05 03:31 | 38.67742 | -19.21092 | 35283 ft | 505 kts | 40° |
| 2026-05-05 03:32 | 38.72892 | -19.15006 | 35277 ft | 503 kts | 40° |
| 2026-05-05 03:32 | 38.78025 | -19.08927 | 35274 ft | 502 kts | 40° |
| 2026-05-05 03:33 | 38.83150 | -19.02847 | 35275 ft | 502 kts | 40° |
| 2026-05-05 03:33 | 38.88270 | -18.96760 | 35274 ft | 502 kts | 40° |
| 2026-05-05 03:34 | 38.93387 | -18.90665 | 35288 ft | 501 kts | 40° |
| 2026-05-05 03:34 | 38.98479 | -18.84584 | 35260 ft | 499 kts | 40° |
| 2026-05-05 03:35 | 39.03517 | -18.78556 | 35261 ft | 497 kts | 40° |
| 2026-05-05 03:35 | 39.08568 | -18.72501 | 35277 ft | 495 kts | 40° |
| 2026-05-05 03:36 | 39.13605 | -18.66451 | 35280 ft | 495 kts | 40° |
| 2026-05-05 03:36 | 39.18634 | -18.60398 | 35261 ft | 495 kts | 40° |
| 2026-05-05 03:37 | 39.23667 | -18.54328 | 35280 ft | 496 kts | 41° |
| 2026-05-05 03:37 | 39.28703 | -18.48240 | 35278 ft | 496 kts | 41° |
| 2026-05-05 03:38 | 39.33743 | -18.42137 | 35262 ft | 497 kts | 41° |
| 2026-05-05 03:38 | 39.38786 | -18.36016 | 35279 ft | 498 kts | 41° |
| 2026-05-05 03:39 | 39.43835 | -18.29875 | 35279 ft | 498 kts | 41° |
| 2026-05-05 03:39 | 39.48876 | -18.23732 | 35265 ft | 497 kts | 41° |
| 2026-05-05 03:40 | 39.53892 | -18.17605 | 35267 ft | 495 kts | 41° |
| 2026-05-05 03:40 | 39.58883 | -18.11495 | 35267 ft | 493 kts | 41° |
| 2026-05-05 03:41 | 39.63856 | -18.05397 | 35268 ft | 491 kts | 41° |
| 2026-05-05 03:41 | 39.68820 | -17.99297 | 35270 ft | 491 kts | 41° |
| 2026-05-05 03:42 | 39.73751 | -17.93225 | 35281 ft | 491 kts | 41° |
| 2026-05-05 03:42 | 39.78709 | -17.87106 | 35263 ft | 491 kts | 41° |
| 2026-05-05 03:43 | 39.83664 | -17.80978 | 35267 ft | 492 kts | 41° |
| 2026-05-05 03:43 | 39.88619 | -17.74838 | 35265 ft | 492 kts | 41° |
| 2026-05-05 03:44 | 39.93569 | -17.68691 | 35263 ft | 492 kts | 41° |
| 2026-05-05 03:44 | 39.98522 | -17.62527 | 35263 ft | 492 kts | 41° |
| 2026-05-05 03:45 | 40.03481 | -17.56341 | 35270 ft | 493 kts | 41° |
| 2026-05-05 03:45 | 40.08436 | -17.50150 | 35263 ft | 493 kts | 41° |
| 2026-05-05 03:46 | 40.13390 | -17.43944 | 35261 ft | 493 kts | 41° |
| 2026-05-05 03:46 | 40.18345 | -17.37726 | 35265 ft | 493 kts | 41° |
| 2026-05-05 03:47 | 40.23293 | -17.31502 | 35258 ft | 493 kts | 41° |
| 2026-05-05 03:47 | 40.28240 | -17.25267 | 35266 ft | 494 kts | 41° |
| 2026-05-05 03:48 | 40.33182 | -17.19024 | 35260 ft | 494 kts | 41° |
| 2026-05-05 03:48 | 40.38122 | -17.12771 | 35259 ft | 493 kts | 41° |
| 2026-05-05 03:49 | 40.43061 | -17.06506 | 35258 ft | 493 kts | 41° |
| 2026-05-05 03:49 | 40.47958 | -17.00279 | 35255 ft | 493 kts | 41° |
| 2026-05-05 03:50 | 40.52888 | -16.93998 | 35268 ft | 493 kts | 41° |
| 2026-05-05 03:50 | 40.57814 | -16.87708 | 35250 ft | 494 kts | 41° |
| 2026-05-05 03:51 | 40.62739 | -16.81406 | 35253 ft | 494 kts | 41° |
| 2026-05-05 03:51 | 40.67659 | -16.75097 | 35250 ft | 494 kts | 41° |
| 2026-05-05 03:52 | 40.72576 | -16.68779 | 35268 ft | 494 kts | 41° |
| 2026-05-05 03:52 | 40.77491 | -16.62449 | 35261 ft | 494 kts | 41° |
| 2026-05-05 03:53 | 40.82404 | -16.56107 | 35251 ft | 494 kts | 41° |
| 2026-05-05 03:53 | 40.87312 | -16.49757 | 35249 ft | 493 kts | 41° |
| 2026-05-05 03:54 | 40.92213 | -16.43403 | 35247 ft | 493 kts | 41° |
| 2026-05-05 03:54 | 40.96277 | -16.38124 | 35247 ft | 493 kts | 41° |
| 2026-05-05 03:55 | 41.01167 | -16.31760 | 35253 ft | 493 kts | 41° |
| 2026-05-05 03:55 | 41.06050 | -16.25390 | 35251 ft | 492 kts | 41° |
| 2026-05-05 03:56 | 41.10921 | -16.19021 | 35239 ft | 491 kts | 41° |
| 2026-05-05 03:56 | 41.15779 | -16.12655 | 35241 ft | 490 kts | 41° |
| 2026-05-05 03:57 | 41.20624 | -16.06293 | 35235 ft | 490 kts | 41° |
| 2026-05-05 03:57 | 41.25465 | -15.99923 | 35237 ft | 490 kts | 41° |
| 2026-05-05 03:58 | 41.30300 | -15.93545 | 35260 ft | 489 kts | 42° |
| 2026-05-05 03:58 | 41.35121 | -15.87172 | 35242 ft | 488 kts | 42° |
| 2026-05-05 03:59 | 41.39919 | -15.80815 | 35238 ft | 486 kts | 42° |
| 2026-05-05 03:59 | 41.44704 | -15.74461 | 35228 ft | 485 kts | 42° |
| 2026-05-05 04:00 | 41.49476 | -15.68112 | 35233 ft | 484 kts | 42° |
| 2026-05-05 04:00 | 41.54244 | -15.61753 | 35260 ft | 484 kts | 42° |
| 2026-05-05 04:01 | 41.59008 | -15.55387 | 35231 ft | 484 kts | 42° |
| 2026-05-05 04:01 | 41.63760 | -15.49021 | 35225 ft | 484 kts | 42° |
| 2026-05-05 04:02 | 41.68507 | -15.42648 | 35226 ft | 483 kts | 42° |
| 2026-05-05 04:02 | 41.73245 | -15.36273 | 35226 ft | 483 kts | 43° |
| 2026-05-05 04:03 | 41.77951 | -15.29928 | 35224 ft | 483 kts | 43° |
| 2026-05-05 04:03 | 41.82684 | -15.23530 | 35224 ft | 483 kts | 43° |
| 2026-05-05 04:04 | 41.87421 | -15.17113 | 35220 ft | 484 kts | 43° |
| 2026-05-05 04:04 | 41.92148 | -15.10695 | 35221 ft | 484 kts | 43° |
| 2026-05-05 04:05 | 41.96882 | -15.04255 | 35218 ft | 484 kts | 43° |
| 2026-05-05 04:05 | 42.01806 | -14.98124 | 35216 ft | 482 kts | 34° |
| 2026-05-05 04:06 | 42.04529 | -14.95479 | 35417 ft | 482 kts | 32° |
| 2026-05-05 04:06 | 42.07255 | -14.92895 | 35902 ft | 476 kts | 32° |
| 2026-05-05 04:06 | 42.09955 | -14.90342 | 36420 ft | 472 kts | 32° |
| 2026-05-05 04:06 | 42.12636 | -14.87798 | 36708 ft | 472 kts | 32° |
| 2026-05-05 04:07 | 42.15326 | -14.85231 | 36887 ft | 474 kts | 32° |
| 2026-05-05 04:07 | 42.18015 | -14.82650 | 37099 ft | 475 kts | 32° |
| 2026-05-05 04:07 | 42.23414 | -14.77436 | 37199 ft | 477 kts | 32° |
| 2026-05-05 04:08 | 42.28758 | -14.72247 | 37220 ft | 474 kts | 32° |
| 2026-05-05 04:08 | 42.34096 | -14.67053 | 37209 ft | 472 kts | 32° |
| 2026-05-05 04:09 | 42.39443 | -14.61844 | 37208 ft | 470 kts | 32° |
| 2026-05-05 04:09 | 42.44738 | -14.56677 | 37234 ft | 469 kts | 32° |
| 2026-05-05 04:10 | 42.49990 | -14.51540 | 37212 ft | 468 kts | 32° |
| 2026-05-05 04:10 | 42.55268 | -14.46367 | 37206 ft | 467 kts | 32° |
| 2026-05-05 04:11 | 42.60532 | -14.41195 | 37202 ft | 466 kts | 32° |
| 2026-05-05 04:11 | 42.65780 | -14.36029 | 37203 ft | 466 kts | 32° |
| 2026-05-05 04:12 | 42.71019 | -14.30860 | 37201 ft | 465 kts | 32° |
| 2026-05-05 04:12 | 42.76257 | -14.25682 | 37208 ft | 465 kts | 32° |
| 2026-05-05 04:13 | 42.81489 | -14.20499 | 37219 ft | 465 kts | 32° |
| 2026-05-05 04:13 | 42.86724 | -14.15301 | 37203 ft | 465 kts | 32° |
| 2026-05-05 04:14 | 42.91956 | -14.10095 | 37188 ft | 465 kts | 32° |
| 2026-05-05 04:14 | 42.97178 | -14.04888 | 37206 ft | 465 kts | 32° |
| 2026-05-05 04:15 | 43.02393 | -13.99676 | 37203 ft | 464 kts | 32° |
| 2026-05-05 04:15 | 43.07595 | -13.94466 | 37184 ft | 463 kts | 32° |
| 2026-05-05 04:16 | 43.12791 | -13.89252 | 37180 ft | 463 kts | 32° |
| 2026-05-05 04:16 | 43.17980 | -13.84033 | 37201 ft | 463 kts | 32° |
| 2026-05-05 04:17 | 43.23161 | -13.78810 | 37197 ft | 462 kts | 32° |
| 2026-05-05 04:17 | 43.28327 | -13.73591 | 37177 ft | 460 kts | 32° |
| 2026-05-05 04:18 | 43.33473 | -13.68381 | 37182 ft | 459 kts | 32° |
| 2026-05-05 04:18 | 43.38605 | -13.63176 | 37179 ft | 458 kts | 32° |
| 2026-05-05 04:19 | 43.43727 | -13.57968 | 37183 ft | 458 kts | 33° |
| 2026-05-05 04:19 | 43.48843 | -13.52756 | 37176 ft | 457 kts | 33° |
| 2026-05-05 04:20 | 43.53956 | -13.47535 | 37190 ft | 457 kts | 33° |
| 2026-05-05 04:20 | 43.59065 | -13.42308 | 37182 ft | 457 kts | 33° |
| 2026-05-05 04:21 | 43.64134 | -13.37109 | 37186 ft | 457 kts | 33° |
| 2026-05-05 04:21 | 43.69236 | -13.31865 | 37167 ft | 456 kts | 33° |
| 2026-05-05 04:22 | 43.74326 | -13.26622 | 37164 ft | 456 kts | 33° |
| 2026-05-05 04:22 | 43.79404 | -13.21381 | 37162 ft | 455 kts | 33° |
| 2026-05-05 04:23 | 43.84480 | -13.16130 | 37159 ft | 455 kts | 33° |
| 2026-05-05 04:23 | 43.89551 | -13.10873 | 37155 ft | 455 kts | 33° |
| 2026-05-05 04:24 | 43.94617 | -13.05607 | 37159 ft | 455 kts | 33° |
| 2026-05-05 04:25 | 44.02219 | -12.97742 | 37155 ft | 454 kts | 32° |
| 2026-05-05 04:25 | 44.07380 | -12.92687 | 37155 ft | 453 kts | 31° |
| 2026-05-05 04:26 | 44.12546 | -12.87667 | 37147 ft | 453 kts | 32° |
| 2026-05-05 04:26 | 44.17702 | -12.82614 | 37148 ft | 453 kts | 32° |
| 2026-05-05 04:27 | 44.22850 | -12.77537 | 37148 ft | 453 kts | 32° |
| 2026-05-05 04:27 | 44.28004 | -12.72436 | 37148 ft | 455 kts | 32° |
| 2026-05-05 04:28 | 44.33168 | -12.67315 | 37147 ft | 456 kts | 32° |
| 2026-05-05 04:28 | 44.38302 | -12.62211 | 37142 ft | 456 kts | 32° |
| 2026-05-05 04:29 | 44.43471 | -12.57063 | 37139 ft | 456 kts | 32° |
| 2026-05-05 04:29 | 44.48641 | -12.51903 | 37134 ft | 457 kts | 32° |
| 2026-05-05 04:30 | 44.53815 | -12.46727 | 37142 ft | 457 kts | 32° |
| 2026-05-05 04:30 | 44.58988 | -12.41540 | 37139 ft | 457 kts | 32° |
| 2026-05-05 04:31 | 44.64162 | -12.36340 | 37132 ft | 457 kts | 32° |
| 2026-05-05 04:31 | 44.69330 | -12.31135 | 37124 ft | 457 kts | 32° |
| 2026-05-05 04:32 | 44.74494 | -12.25923 | 37132 ft | 457 kts | 33° |
| 2026-05-05 04:32 | 44.79649 | -12.20707 | 37137 ft | 457 kts | 33° |
| 2026-05-05 04:33 | 44.84811 | -12.15473 | 37130 ft | 457 kts | 33° |
| 2026-05-05 04:33 | 44.89979 | -12.10222 | 37122 ft | 458 kts | 33° |
| 2026-05-05 04:34 | 44.95155 | -12.04948 | 37120 ft | 459 kts | 33° |
| 2026-05-05 04:34 | 45.00272 | -11.99675 | 37111 ft | 459 kts | 35° |
| 2026-05-05 04:35 | 45.05143 | -11.93828 | 37121 ft | 459 kts | 38° |
| 2026-05-05 04:35 | 45.09949 | -11.87884 | 37100 ft | 459 kts | 38° |
| 2026-05-05 04:36 | 45.14757 | -11.81943 | 37112 ft | 458 kts | 38° |
| 2026-05-05 04:36 | 45.19561 | -11.76021 | 37117 ft | 457 kts | 38° |
| 2026-05-05 04:37 | 45.24356 | -11.70107 | 37113 ft | 456 kts | 38° |
| 2026-05-05 04:37 | 45.29138 | -11.64198 | 37115 ft | 456 kts | 38° |
| 2026-05-05 04:38 | 45.33932 | -11.58260 | 37109 ft | 458 kts | 38° |
| 2026-05-05 04:38 | 45.38742 | -11.52287 | 37102 ft | 460 kts | 38° |
| 2026-05-05 04:39 | 45.43557 | -11.46293 | 37108 ft | 460 kts | 38° |
| 2026-05-05 04:39 | 45.48373 | -11.40283 | 37096 ft | 460 kts | 38° |
| 2026-05-05 04:40 | 45.52373 | -11.35281 | 37120 ft | 460 kts | 39° |
| 2026-05-05 04:40 | 45.57193 | -11.29241 | 37100 ft | 462 kts | 39° |
| 2026-05-05 04:41 | 45.62019 | -11.23178 | 37089 ft | 462 kts | 39° |
| 2026-05-05 04:41 | 45.66843 | -11.17104 | 37086 ft | 462 kts | 39° |
| 2026-05-05 04:42 | 45.71664 | -11.11018 | 37086 ft | 461 kts | 39° |
| 2026-05-05 04:42 | 45.76473 | -11.04933 | 37105 ft | 461 kts | 39° |
| 2026-05-05 04:43 | 45.81288 | -10.98828 | 37097 ft | 462 kts | 39° |
| 2026-05-05 04:43 | 45.86076 | -10.92741 | 37088 ft | 463 kts | 39° |
| 2026-05-05 04:44 | 45.90904 | -10.86588 | 37087 ft | 464 kts | 39° |
| 2026-05-05 04:44 | 45.95742 | -10.80407 | 37062 ft | 465 kts | 39° |
| 2026-05-05 04:45 | 46.00572 | -10.74222 | 37086 ft | 465 kts | 39° |
| 2026-05-05 04:45 | 46.05411 | -10.68011 | 37069 ft | 466 kts | 39° |
| 2026-05-05 04:46 | 46.10251 | -10.61782 | 37067 ft | 467 kts | 40° |
| 2026-05-05 04:46 | 46.15088 | -10.55541 | 37060 ft | 467 kts | 40° |
| 2026-05-05 04:47 | 46.19928 | -10.49282 | 37065 ft | 467 kts | 40° |
| 2026-05-05 04:47 | 46.24755 | -10.43025 | 37075 ft | 466 kts | 40° |
| 2026-05-05 04:48 | 46.29551 | -10.36792 | 37067 ft | 467 kts | 40° |
| 2026-05-05 04:48 | 46.34381 | -10.30500 | 37060 ft | 467 kts | 40° |
| 2026-05-05 04:49 | 46.39210 | -10.24192 | 37057 ft | 468 kts | 40° |
| 2026-05-05 04:49 | 46.44039 | -10.17870 | 37057 ft | 468 kts | 40° |
| 2026-05-05 04:50 | 46.48861 | -10.11541 | 37048 ft | 468 kts | 40° |
| 2026-05-05 04:50 | 46.53694 | -10.05181 | 37049 ft | 469 kts | 40° |
| 2026-05-05 04:51 | 46.58520 | -9.98815 | 37046 ft | 469 kts | 40° |
| 2026-05-05 04:51 | 46.63350 | -9.92427 | 37050 ft | 469 kts | 40° |
| 2026-05-05 04:52 | 46.68177 | -9.86027 | 37047 ft | 470 kts | 41° |
| 2026-05-05 04:52 | 46.73003 | -9.79612 | 37046 ft | 470 kts | 41° |
| 2026-05-05 04:53 | 46.77832 | -9.73178 | 37043 ft | 470 kts | 41° |
| 2026-05-05 04:53 | 46.82659 | -9.66729 | 37044 ft | 471 kts | 41° |
| 2026-05-05 04:54 | 46.87485 | -9.60264 | 37044 ft | 471 kts | 41° |
| 2026-05-05 04:54 | 46.92279 | -9.53827 | 37043 ft | 471 kts | 41° |
| 2026-05-05 04:55 | 46.97134 | -9.47291 | 37041 ft | 471 kts | 41° |
| 2026-05-05 04:55 | 47.01923 | -9.40828 | 37049 ft | 471 kts | 41° |
| 2026-05-05 04:56 | 47.06741 | -9.34307 | 37041 ft | 471 kts | 41° |
| 2026-05-05 04:56 | 47.11556 | -9.27775 | 37042 ft | 471 kts | 41° |
| 2026-05-05 04:57 | 47.16368 | -9.21230 | 37034 ft | 471 kts | 41° |
| 2026-05-05 04:57 | 47.21170 | -9.14682 | 37040 ft | 471 kts | 41° |
| 2026-05-05 04:58 | 47.25972 | -9.08116 | 37037 ft | 471 kts | 42° |
| 2026-05-05 04:58 | 47.30771 | -9.01538 | 37040 ft | 471 kts | 42° |
| 2026-05-05 04:59 | 47.35562 | -8.94952 | 37036 ft | 471 kts | 42° |
| 2026-05-05 04:59 | 47.40360 | -8.88339 | 37037 ft | 471 kts | 42° |
| 2026-05-05 05:00 | 47.45119 | -8.81766 | 37035 ft | 471 kts | 42° |
| 2026-05-05 05:00 | 47.49016 | -8.74118 | 37055 ft | 471 kts | 66° |
| 2026-05-05 05:00 | 47.49979 | -8.69475 | 37028 ft | 475 kts | 78° |
| 2026-05-05 05:01 | 47.50210 | -8.64607 | 37041 ft | 476 kts | 89° |
| 2026-05-05 05:01 | 47.50110 | -8.54793 | 37041 ft | 479 kts | 89° |
| 2026-05-05 05:02 | 47.50053 | -8.44907 | 37037 ft | 481 kts | 88° |
| 2026-05-05 05:02 | 47.50050 | -8.34990 | 37043 ft | 483 kts | 88° |
| 2026-05-05 05:03 | 47.50051 | -8.25021 | 37039 ft | 485 kts | 88° |
| 2026-05-05 05:03 | 47.50040 | -8.15041 | 37033 ft | 486 kts | 88° |
| 2026-05-05 05:04 | 47.50490 | -8.05160 | 37032 ft | 478 kts | 71° |
| 2026-05-05 05:04 | 47.51874 | -8.00726 | 37027 ft | 474 kts | 55° |
| 2026-05-05 05:04 | 47.53930 | -7.96943 | 37034 ft | 472 kts | 43° |
| 2026-05-05 05:04 | 47.56502 | -7.93959 | 37015 ft | 469 kts | 31° |
| 2026-05-05 05:05 | 47.59314 | -7.91511 | 37040 ft | 470 kts | 29° |
| 2026-05-05 05:05 | 47.65020 | -7.86721 | 37038 ft | 472 kts | 29° |
| 2026-05-05 05:06 | 47.70693 | -7.81890 | 37018 ft | 474 kts | 30° |
| 2026-05-05 05:06 | 47.76393 | -7.76925 | 37030 ft | 475 kts | 30° |
| 2026-05-05 05:07 | 47.82086 | -7.71912 | 37032 ft | 475 kts | 30° |
| 2026-05-05 05:07 | 47.87771 | -7.66888 | 37030 ft | 474 kts | 30° |
| 2026-05-05 05:08 | 47.93446 | -7.61862 | 37015 ft | 474 kts | 30° |
| 2026-05-05 05:08 | 47.99108 | -7.56839 | 37035 ft | 473 kts | 30° |
| 2026-05-05 05:09 | 48.04764 | -7.51809 | 37025 ft | 473 kts | 30° |
| 2026-05-05 05:09 | 48.10415 | -7.46769 | 37011 ft | 473 kts | 31° |
| 2026-05-05 05:10 | 48.16064 | -7.41718 | 37032 ft | 473 kts | 31° |
| 2026-05-05 05:10 | 48.21678 | -7.36686 | 37023 ft | 473 kts | 31° |
| 2026-05-05 05:11 | 48.27320 | -7.31616 | 37028 ft | 472 kts | 31° |
| 2026-05-05 05:11 | 48.32965 | -7.26529 | 37032 ft | 473 kts | 31° |
| 2026-05-05 05:12 | 48.38613 | -7.21426 | 37012 ft | 474 kts | 31° |
| 2026-05-05 05:12 | 48.44266 | -7.16306 | 37028 ft | 474 kts | 31° |
| 2026-05-05 05:13 | 48.49914 | -7.11176 | 37008 ft | 474 kts | 31° |
| 2026-05-05 05:13 | 48.55554 | -7.06041 | 37020 ft | 473 kts | 31° |
| 2026-05-05 05:14 | 48.61146 | -7.00935 | 37018 ft | 472 kts | 31° |
| 2026-05-05 05:14 | 48.66771 | -6.95786 | 37011 ft | 472 kts | 31° |
| 2026-05-05 05:15 | 48.72389 | -6.90630 | 37036 ft | 473 kts | 31° |
| 2026-05-05 05:15 | 48.78026 | -6.85443 | 37029 ft | 474 kts | 31° |
| 2026-05-05 05:16 | 48.83667 | -6.80238 | 37028 ft | 475 kts | 31° |
| 2026-05-05 05:16 | 48.89319 | -6.75009 | 37000 ft | 476 kts | 31° |
| 2026-05-05 05:17 | 48.94962 | -6.69774 | 37004 ft | 475 kts | 31° |
| 2026-05-05 05:17 | 49.00589 | -6.64540 | 37018 ft | 473 kts | 31° |
| 2026-05-05 05:18 | 49.06201 | -6.59307 | 37026 ft | 472 kts | 32° |
| 2026-05-05 05:18 | 49.11807 | -6.54064 | 37025 ft | 473 kts | 32° |
| 2026-05-05 05:19 | 49.17424 | -6.48797 | 37020 ft | 474 kts | 32° |
| 2026-05-05 05:19 | 49.23046 | -6.43511 | 37015 ft | 474 kts | 32° |
| 2026-05-05 05:20 | 49.28623 | -6.38253 | 37018 ft | 474 kts | 32° |
| 2026-05-05 05:20 | 49.34234 | -6.32949 | 37011 ft | 474 kts | 32° |
| 2026-05-05 05:21 | 49.39834 | -6.27640 | 37011 ft | 473 kts | 32° |
| 2026-05-05 05:21 | 49.45420 | -6.22332 | 37020 ft | 473 kts | 32° |
| 2026-05-05 05:22 | 49.50912 | -6.16744 | 37016 ft | 474 kts | 39° |
| 2026-05-05 05:22 | 49.55626 | -6.09634 | 37016 ft | 476 kts | 51° |
| 2026-05-05 05:23 | 49.59560 | -6.01426 | 37007 ft | 477 kts | 54° |
| 2026-05-05 05:23 | 49.63387 | -5.93090 | 37003 ft | 475 kts | 54° |
| 2026-05-05 05:24 | 49.67202 | -5.84828 | 36995 ft | 471 kts | 54° |
| 2026-05-05 05:24 | 49.71037 | -5.76573 | 37007 ft | 476 kts | 54° |
| 2026-05-05 05:25 | 49.74900 | -5.68255 | 37013 ft | 481 kts | 54° |
| 2026-05-05 05:25 | 49.78804 | -5.59825 | 37006 ft | 481 kts | 54° |
| 2026-05-05 05:26 | 49.82672 | -5.51444 | 37007 ft | 476 kts | 54° |
| 2026-05-05 05:26 | 49.86497 | -5.43126 | 36995 ft | 473 kts | 55° |
| 2026-05-05 05:27 | 49.90326 | -5.34776 | 37009 ft | 477 kts | 55° |
| 2026-05-05 05:27 | 49.95471 | -5.23511 | 37004 ft | 483 kts | 55° |
| 2026-05-05 05:28 | 49.99337 | -5.15017 | 36984 ft | 479 kts | 55° |
| 2026-05-05 05:28 | 50.03158 | -5.06592 | 36998 ft | 475 kts | 55° |
| 2026-05-05 05:29 | 50.06956 | -4.98193 | 36997 ft | 474 kts | 55° |
| 2026-05-05 05:29 | 50.10749 | -4.89777 | 36996 ft | 475 kts | 55° |
| 2026-05-05 05:30 | 50.14515 | -4.81394 | 37001 ft | 476 kts | 55° |
| 2026-05-05 05:30 | 50.18312 | -4.72916 | 37004 ft | 478 kts | 55° |
| 2026-05-05 05:31 | 50.22117 | -4.64394 | 37002 ft | 479 kts | 55° |
| 2026-05-05 05:31 | 50.25927 | -4.55831 | 37001 ft | 480 kts | 56° |
| 2026-05-05 05:32 | 50.29739 | -4.47237 | 37004 ft | 481 kts | 56° |
| 2026-05-05 05:32 | 50.33543 | -4.38631 | 36997 ft | 481 kts | 56° |
| 2026-05-05 05:33 | 50.37349 | -4.29994 | 37002 ft | 481 kts | 56° |
| 2026-05-05 05:33 | 50.41140 | -4.21361 | 37000 ft | 481 kts | 56° |
| 2026-05-05 05:34 | 50.44920 | -4.12725 | 37002 ft | 480 kts | 56° |
| 2026-05-05 05:34 | 50.48672 | -4.04128 | 37009 ft | 480 kts | 57° |
| 2026-05-05 05:35 | 50.51712 | -3.94812 | 37013 ft | 478 kts | 70° |
| 2026-05-05 05:35 | 50.53344 | -3.84706 | 37017 ft | 477 kts | 81° |
| 2026-05-05 05:36 | 50.54399 | -3.74389 | 37010 ft | 478 kts | 81° |
| 2026-05-05 05:36 | 50.55480 | -3.64120 | 36998 ft | 479 kts | 81° |
| 2026-05-05 05:37 | 50.56604 | -3.53797 | 37009 ft | 479 kts | 81° |
| 2026-05-05 05:37 | 50.57879 | -3.43505 | 37002 ft | 480 kts | 75° |
| 2026-05-05 05:38 | 50.59795 | -3.33437 | 37002 ft | 480 kts | 73° |
| 2026-05-05 05:38 | 50.61752 | -3.23382 | 36997 ft | 481 kts | 73° |
| 2026-05-05 05:39 | 50.63671 | -3.13291 | 37009 ft | 480 kts | 74° |
| 2026-05-05 05:39 | 50.65561 | -3.03193 | 37011 ft | 480 kts | 74° |
| 2026-05-05 05:40 | 50.67438 | -2.93095 | 37003 ft | 480 kts | 75° |
| 2026-05-05 05:40 | 50.69299 | -2.83041 | 37000 ft | 480 kts | 75° |
| 2026-05-05 05:41 | 50.71159 | -2.72938 | 36989 ft | 480 kts | 75° |
| 2026-05-05 05:41 | 50.73016 | -2.62799 | 36999 ft | 481 kts | 75° |
| 2026-05-05 05:42 | 50.74868 | -2.52639 | 37001 ft | 482 kts | 75° |
| 2026-05-05 05:42 | 50.76704 | -2.42430 | 36997 ft | 483 kts | 75° |
| 2026-05-05 05:43 | 50.78525 | -2.32208 | 36991 ft | 484 kts | 75° |
| 2026-05-05 05:43 | 50.80346 | -2.21957 | 36997 ft | 485 kts | 75° |
| 2026-05-05 05:44 | 50.82156 | -2.11685 | 37001 ft | 486 kts | 75° |
| 2026-05-05 05:44 | 50.83951 | -2.01452 | 36995 ft | 486 kts | 75° |
| 2026-05-05 05:45 | 50.85755 | -1.91131 | 36995 ft | 487 kts | 76° |
| 2026-05-05 05:45 | 50.87556 | -1.80803 | 36986 ft | 487 kts | 76° |
| 2026-05-05 05:46 | 50.89350 | -1.70457 | 36997 ft | 487 kts | 76° |
| 2026-05-05 05:46 | 50.91138 | -1.60082 | 36994 ft | 487 kts | 76° |
| 2026-05-05 05:47 | 50.92913 | -1.49718 | 36996 ft | 488 kts | 76° |
| 2026-05-05 05:47 | 50.94681 | -1.39341 | 36989 ft | 488 kts | 76° |
| 2026-05-05 05:48 | 50.96098 | -1.28835 | 36996 ft | 487 kts | 83° |
| 2026-05-05 05:48 | 50.97001 | -1.18168 | 36995 ft | 488 kts | 83° |
| 2026-05-05 05:49 | 50.97875 | -1.07533 | 36997 ft | 489 kts | 83° |
| 2026-05-05 05:49 | 50.98780 | -0.96817 | 36990 ft | 490 kts | 83° |
| 2026-05-05 05:50 | 50.99693 | -0.86095 | 36983 ft | 490 kts | 83° |
| 2026-05-05 05:50 | 51.00599 | -0.75357 | 36989 ft | 491 kts | 83° |
| 2026-05-05 05:51 | 51.01495 | -0.64603 | 36980 ft | 491 kts | 83° |
| 2026-05-05 05:51 | 51.02380 | -0.53842 | 36975 ft | 491 kts | 83° |
| 2026-05-05 05:52 | 51.03255 | -0.43071 | 36990 ft | 491 kts | 83° |
| 2026-05-05 05:52 | 51.04120 | -0.32310 | 36992 ft | 491 kts | 83° |
| 2026-05-05 05:53 | 51.04975 | -0.21538 | 36995 ft | 491 kts | 84° |
| 2026-05-05 05:53 | 51.05820 | -0.10768 | 36993 ft | 491 kts | 84° |
| 2026-05-05 05:54 | 51.06650 | -0.00070 | 36987 ft | 491 kts | 84° |
| 2026-05-05 05:54 | 51.07475 | 0.10702 | 37022 ft | 491 kts | 84° |
| 2026-05-05 05:55 | 51.08288 | 0.21484 | 37052 ft | 491 kts | 84° |
| 2026-05-05 05:55 | 51.09094 | 0.32291 | 37069 ft | 492 kts | 84° |
| 2026-05-05 05:56 | 51.09891 | 0.43104 | 37077 ft | 492 kts | 84° |
| 2026-05-05 05:56 | 51.10680 | 0.53926 | 37064 ft | 493 kts | 84° |
| 2026-05-05 05:57 | 51.11458 | 0.64787 | 37053 ft | 494 kts | 85° |
| 2026-05-05 05:57 | 51.12226 | 0.75665 | 37035 ft | 495 kts | 85° |
| 2026-05-05 05:58 | 51.12983 | 0.86519 | 37013 ft | 496 kts | 85° |
| 2026-05-05 05:58 | 51.13734 | 0.97430 | 36958 ft | 496 kts | 85° |
| 2026-05-05 05:59 | 51.14477 | 1.08374 | 36978 ft | 497 kts | 85° |
| 2026-05-05 05:59 | 51.15210 | 1.19326 | 36980 ft | 497 kts | 85° |
| 2026-05-05 06:00 | 51.15935 | 1.30288 | 36987 ft | 498 kts | 85° |
| 2026-05-05 06:00 | 51.16915 | 1.41208 | 36976 ft | 499 kts | 79° |
| 2026-05-05 06:01 | 51.18375 | 1.52022 | 36974 ft | 500 kts | 79° |
| 2026-05-05 06:01 | 51.19835 | 1.62862 | 36973 ft | 500 kts | 79° |
| 2026-05-05 06:02 | 51.21248 | 1.73727 | 36974 ft | 501 kts | 80° |
| 2026-05-05 06:02 | 51.22642 | 1.84602 | 36969 ft | 501 kts | 80° |
| 2026-05-05 06:03 | 51.23992 | 1.95527 | 36960 ft | 500 kts | 84° |
| 2026-05-05 06:03 | 51.24395 | 2.06497 | 36968 ft | 497 kts | 95° |
| 2026-05-05 06:04 | 51.23834 | 2.17481 | 36959 ft | 497 kts | 97° |
| 2026-05-05 06:04 | 51.23278 | 2.28494 | 36973 ft | 498 kts | 96° |
| 2026-05-05 06:05 | 51.22093 | 2.39271 | 36943 ft | 490 kts | 114° |
| 2026-05-05 06:05 | 51.18721 | 2.48548 | 36966 ft | 481 kts | 134° |
| 2026-05-05 06:06 | 51.14236 | 2.56461 | 36964 ft | 482 kts | 134° |
| 2026-05-05 06:06 | 51.12161 | 2.60633 | 36940 ft | 484 kts | 123° |
| 2026-05-05 06:06 | 51.10837 | 2.65598 | 36964 ft | 491 kts | 106° |
| 2026-05-05 06:07 | 51.10368 | 2.71015 | 36604 ft | 503 kts | 92° |
| 2026-05-05 06:07 | 51.10843 | 2.76582 | 35832 ft | 510 kts | 78° |
| 2026-05-05 06:07 | 51.11719 | 2.82045 | 35019 ft | 510 kts | 77° |
| 2026-05-05 06:07 | 51.12600 | 2.87520 | 34146 ft | 511 kts | 78° |
| 2026-05-05 06:08 | 51.13456 | 2.93029 | 33147 ft | 513 kts | 79° |
| 2026-05-05 06:08 | 51.14279 | 2.98564 | 32160 ft | 513 kts | 79° |
| 2026-05-05 06:08 | 51.15076 | 3.04108 | 31177 ft | 514 kts | 79° |
| 2026-05-05 06:08 | 51.15858 | 3.09663 | 30394 ft | 511 kts | 80° |
| 2026-05-05 06:09 | 51.16614 | 3.15079 | 29733 ft | 505 kts | 80° |
| 2026-05-05 06:09 | 51.17370 | 3.20505 | 29034 ft | 499 kts | 80° |
| 2026-05-05 06:09 | 51.18115 | 3.25861 | 28387 ft | 492 kts | 79° |
| 2026-05-05 06:09 | 51.18850 | 3.31157 | 27750 ft | 487 kts | 79° |
| 2026-05-05 06:10 | 51.19576 | 3.36394 | 27131 ft | 481 kts | 79° |
| 2026-05-05 06:10 | 51.20290 | 3.41564 | 26535 ft | 475 kts | 79° |
| 2026-05-05 06:10 | 51.20996 | 3.46691 | 25902 ft | 471 kts | 79° |
| 2026-05-05 06:10 | 51.21696 | 3.51762 | 25315 ft | 463 kts | 77° |
| 2026-05-05 06:11 | 51.22819 | 3.56523 | 24705 ft | 459 kts | 60° |
| 2026-05-05 06:11 | 51.24811 | 3.60453 | 24143 ft | 455 kts | 42° |
| 2026-05-05 06:11 | 51.27397 | 3.63301 | 23602 ft | 450 kts | 26° |
| 2026-05-05 06:11 | 51.30289 | 3.65138 | 23055 ft | 444 kts | 14° |
| 2026-05-05 06:12 | 51.33315 | 3.65823 | 22498 ft | 434 kts | 358° |
| 2026-05-05 06:12 | 51.36328 | 3.65685 | 22045 ft | 433 kts | 356° |
| 2026-05-05 06:12 | 51.39348 | 3.65492 | 21550 ft | 435 kts | 356° |
| 2026-05-05 06:12 | 51.42371 | 3.65314 | 21060 ft | 435 kts | 357° |
| 2026-05-05 06:13 | 51.45386 | 3.65165 | 20575 ft | 432 kts | 358° |
| 2026-05-05 06:13 | 51.48376 | 3.65044 | 20101 ft | 427 kts | 358° |
| 2026-05-05 06:13 | 51.50338 | 3.64975 | 19791 ft | 424 kts | 358° |
| 2026-05-05 06:13 | 51.53274 | 3.64880 | 19328 ft | 420 kts | 358° |
| 2026-05-05 06:14 | 51.57123 | 3.64758 | 18721 ft | 415 kts | 358° |
| 2026-05-05 06:14 | 51.60003 | 3.64666 | 18259 ft | 412 kts | 358° |
| 2026-05-05 06:14 | 51.62859 | 3.64574 | 17744 ft | 408 kts | 359° |
| 2026-05-05 06:14 | 51.65687 | 3.64482 | 17259 ft | 405 kts | 359° |
| 2026-05-05 06:15 | 51.67547 | 3.64427 | 16953 ft | 398 kts | 0° |
| 2026-05-05 06:15 | 51.70246 | 3.65060 | 16506 ft | 392 kts | 19° |
| 2026-05-05 06:15 | 51.72630 | 3.67178 | 16087 ft | 394 kts | 37° |
| 2026-05-05 06:15 | 51.74560 | 3.70301 | 15639 ft | 394 kts | 53° |
| 2026-05-05 06:16 | 51.76058 | 3.73998 | 15218 ft | 393 kts | 57° |
| 2026-05-05 06:16 | 51.77497 | 3.77765 | 14787 ft | 394 kts | 58° |
| 2026-05-05 06:16 | 51.78931 | 3.81529 | 14340 ft | 393 kts | 58° |
| 2026-05-05 06:16 | 51.80367 | 3.85271 | 13899 ft | 389 kts | 57° |
| 2026-05-05 06:17 | 51.81794 | 3.88953 | 13414 ft | 384 kts | 57° |
| 2026-05-05 06:17 | 51.83208 | 3.92579 | 12947 ft | 378 kts | 57° |
| 2026-05-05 06:17 | 51.84599 | 3.96137 | 12523 ft | 372 kts | 57° |
| 2026-05-05 06:17 | 51.85971 | 3.99645 | 12109 ft | 366 kts | 56° |
| 2026-05-05 06:18 | 51.87321 | 4.03098 | 11704 ft | 360 kts | 57° |
| 2026-05-05 06:18 | 51.88648 | 4.06502 | 11321 ft | 355 kts | 56° |
| 2026-05-05 06:18 | 51.90034 | 4.09720 | 10900 ft | 342 kts | 45° |
| 2026-05-05 06:18 | 51.91940 | 4.11896 | 10560 ft | 334 kts | 22° |
| 2026-05-05 06:19 | 51.94122 | 4.12866 | 10267 ft | 314 kts | 6° |
| 2026-05-05 06:19 | 51.96227 | 4.12854 | 9859 ft | 291 kts | 354° |
| 2026-05-05 06:19 | 51.98186 | 4.12592 | 9499 ft | 273 kts | 354° |
| 2026-05-05 06:19 | 52.00018 | 4.12361 | 9180 ft | 258 kts | 354° |
| 2026-05-05 06:20 | 52.01821 | 4.12147 | 8927 ft | 265 kts | 355° |
| 2026-05-05 06:20 | 52.03689 | 4.11934 | 8615 ft | 272 kts | 355° |
| 2026-05-05 06:20 | 52.05583 | 4.11726 | 8310 ft | 272 kts | 356° |
| 2026-05-05 06:20 | 52.07422 | 4.12114 | 7973 ft | 266 kts | 21° |
| 2026-05-05 06:21 | 52.09067 | 4.13406 | 7710 ft | 262 kts | 25° |
| 2026-05-05 06:21 | 52.10700 | 4.14671 | 7425 ft | 264 kts | 24° |
| 2026-05-05 06:21 | 52.12368 | 4.15941 | 7132 ft | 266 kts | 24° |
| 2026-05-05 06:21 | 52.14073 | 4.17237 | 6835 ft | 268 kts | 24° |
| 2026-05-05 06:22 | 52.15743 | 4.18505 | 6524 ft | 267 kts | 24° |
| 2026-05-05 06:22 | 52.17424 | 4.19785 | 6219 ft | 266 kts | 24° |
| 2026-05-05 06:22 | 52.19102 | 4.21065 | 5890 ft | 264 kts | 25° |
| 2026-05-05 06:22 | 52.20522 | 4.22835 | 5560 ft | 258 kts | 53° |
| 2026-05-05 06:23 | 52.21298 | 4.25429 | 5316 ft | 253 kts | 70° |
| 2026-05-05 06:23 | 52.21889 | 4.28148 | 5040 ft | 256 kts | 69° |
| 2026-05-05 06:23 | 52.22500 | 4.30879 | 4800 ft | 255 kts | 69° |
| 2026-05-05 06:23 | 52.23106 | 4.33592 | 4515 ft | 253 kts | 69° |
| 2026-05-05 06:24 | 52.23492 | 4.36328 | 4181 ft | 248 kts | 91° |
| 2026-05-05 06:24 | 52.23024 | 4.38990 | 3940 ft | 245 kts | 112° |
| 2026-05-05 06:24 | 52.22285 | 4.41495 | 3642 ft | 244 kts | 113° |
| 2026-05-05 06:24 | 52.21565 | 4.43984 | 3369 ft | 242 kts | 111° |
| 2026-05-05 06:25 | 52.20914 | 4.46474 | 3072 ft | 234 kts | 101° |
| 2026-05-05 06:25 | 52.20807 | 4.49037 | 2856 ft | 222 kts | 86° |
| 2026-05-05 06:25 | 52.20831 | 4.51523 | 2588 ft | 214 kts | 78° |
| 2026-05-05 06:25 | 52.21329 | 4.53707 | 2345 ft | 202 kts | 61° |
| 2026-05-05 06:26 | 52.21987 | 4.55676 | 2115 ft | 194 kts | 58° |
| 2026-05-05 06:26 | 52.22640 | 4.57437 | 2028 ft | 170 kts | 57° |
| 2026-05-05 06:26 | 52.23241 | 4.59003 | 1993 ft | 158 kts | 56° |
| 2026-05-05 06:26 | 52.23829 | 4.60527 | 1919 ft | 163 kts | 56° |
| 2026-05-05 06:27 | 52.24426 | 4.62074 | 1728 ft | 157 kts | 57° |
| 2026-05-05 06:27 | 52.25573 | 4.65053 | 1288 ft | 158 kts | 57° |
| 2026-05-05 06:27 | 52.26150 | 4.66556 | 1053 ft | 158 kts | 56° |
| 2026-05-05 06:28 | 52.26730 | 4.68062 | 823 ft | 155 kts | 56° |
| 2026-05-05 06:28 | 52.27307 | 4.69562 | 646 ft | 155 kts | 55° |
| 2026-05-05 06:28 | 52.27853 | 4.70989 | 407 ft | 140 kts | 56° |
| 2026-05-05 06:28 | 52.28355 | 4.72299 | 226 ft | 132 kts | 57° |
| 2026-05-05 06:29 | 52.28839 | 4.73551 | 50 ft | 130 kts | 56° |
| 2026-05-05 06:29 | 52.29310 | 4.74770 | 6 ft | 117 kts | 56° |
| 2026-05-05 06:29 | 52.29653 | 4.75649 | 3 ft | 69 kts | 57° |
| 2026-05-05 06:29 | 52.29903 | 4.76302 | -2 ft | 63 kts | 57° |
| 2026-05-05 06:30 | 52.30057 | 4.76563 | 2 ft | 24 kts | 26° |
| 2026-05-05 06:30 | 52.30207 | 4.76692 | 2 ft | 24 kts | 27° |
| 2026-05-05 06:30 | 52.30332 | 4.76870 | 2 ft | 24 kts | 54° |
| 2026-05-05 06:30 | 52.30421 | 4.77105 | 2 ft | 24 kts | 58° |
| 2026-05-05 06:31 | 52.30511 | 4.77339 | 2 ft | 24 kts | 58° |
| 2026-05-05 06:31 | 52.30634 | 4.77489 | 2 ft | 24 kts | 344° |
| 2026-05-05 06:31 | 52.30801 | 4.77463 | 2 ft | 24 kts | 3° |
| 2026-05-05 06:31 | 52.30970 | 4.77482 | 2 ft | 24 kts | 4° |
| 2026-05-05 06:32 | 52.31138 | 4.77495 | 2 ft | 24 kts | 2° |
| 2026-05-05 06:32 | 52.31254 | 4.77498 | 2 ft | 12 kts | 344° |
| 2026-05-05 06:32 | 52.31293 | 4.77390 | 2 ft | 12 kts | 269° |
| 2026-05-05 06:32 | 52.31295 | 4.77255 | 2 ft | 12 kts | 273° |
| 2026-05-05 06:33 | 52.31296 | 4.77143 | 2 ft | 9 kts | 264° |
| 2026-05-05 06:33 | 52.31310 | 4.77054 | 2 ft | 2 kts | 299° |
| 2026-05-05 06:33 | 52.31319 | 4.77029 | 2 ft | 3 kts | 302° |
| 2026-05-05 06:33 | 52.31332 | 4.76996 | 2 ft | 4 kts | 303° |
| 2026-05-05 06:34 | 52.31339 | 4.76979 | 2 ft | 1 kts | 303° |
| 2026-05-05 06:34 | 52.31343 | 4.76968 | 2 ft | 0 kts | 303° |